Observation data for Segovia 7SSW on 07/20/2019      Previous  Date       Current Mesonet Observations  Soil Data  Daily Summary Page  Observations in Plain Language
KSE2 200500Z 14016KT 27/22 A3002 RMK A01 T02680217  RH  074%=      5-min Rain = 0
KSE2 200501Z 14014KT 27/22 A3002 RMK A01 T02670217  RH  074%=      5-min Rain = 0
KSE2 200502Z 15014G20KT 27/22 A3002 RMK A01 T02670217  RH  074%=      5-min Rain = 0
KSE2 200503Z 14015G22KT 27/22 A3002 RMK A01 T02670217  RH  074%=      5-min Rain = 0
KSE2 200504Z 15017KT 27/22 A3002 RMK A01 T02670217  RH  074%=      5-min Rain = 0
KSE2 200505Z 15014KT 27/22 A3002 RMK A01 T02670217  RH  074%=      5-min Rain = 0
KSE2 200506Z 15013G18KT 27/22 A3002 RMK A01 T02670217  RH  074%=      5-min Rain = 0
KSE2 200507Z 15017KT 27/22 A3002 RMK A01 T02670217  RH  074%=      5-min Rain = 0
KSE2 200508Z 15014KT 27/22 A3002 RMK A01 T02660217  RH  074%=      5-min Rain = 0
KSE2 200509Z 15014G21KT 27/22 A3002 RMK A01 T02660217  RH  074%=      5-min Rain = 0
KSE2 200510Z 15018KT 27/22 A3002 RMK A01 T02660217  RH  074%=      5-min Rain = 0
KSE2 200511Z 15017KT 27/22 A3002 RMK A01 T02660217  RH  074%=      5-min Rain = 0
KSE2 200512Z 14015G21KT 27/22 A3002 RMK A01 T02660217  RH  074%=      5-min Rain = 0
KSE2 200513Z 15014KT 27/22 A3002 RMK A01 T02660217  RH  074%=      5-min Rain = 0
KSE2 200514Z 15014KT 27/22 A3002 RMK A01 T02660217  RH  074%=      5-min Rain = 0
KSE2 200515Z 15016KT 27/22 A3003 RMK A01 T02660217  RH  075%=      5-min Rain = 0
KSE2 200516Z 14012KT 27/22 A3003 RMK A01 T02660217  RH  075%=      5-min Rain = 0
KSE2 200517Z 14012KT 27/22 A3003 RMK A01 T02650217  RH  075%=      5-min Rain = 0
KSE2 200518Z 14012G17KT 27/22 A3002 RMK A01 T02650217  RH  075%=      5-min Rain = 0
KSE2 200519Z 14013KT 27/22 A3002 RMK A01 T02650217  RH  075%=      5-min Rain = 0
KSE2 200520Z 15012KT 27/22 A3002 RMK A01 T02650217  RH  075%=      5-min Rain = 0
KSE2 200521Z 14010G15KT 26/22 A3002 RMK A01 T02640217  RH  075%=      5-min Rain = 0
KSE2 200522Z 14014G19KT 26/22 A3002 RMK A01 T02640217  RH  075%=      5-min Rain = 0
KSE2 200523Z 15015KT 26/22 A3002 RMK A01 T02640217  RH  076%=      5-min Rain = 0
KSE2 200524Z 14015KT 26/22 A3002 RMK A01 T02640217  RH  076%=      5-min Rain = 0
KSE2 200525Z 15013KT 26/22 A3002 RMK A01 T02640217  RH  076%=      5-min Rain = 0
KSE2 200526Z 15009KT 26/22 A3002 RMK A01 T02640217  RH  076%=      5-min Rain = 0
KSE2 200527Z 15008G13KT 26/22 A3002 RMK A01 T02630217  RH  076%=      5-min Rain = 0
KSE2 200528Z 14010G15KT 26/22 A3002 RMK A01 T02630217  RH  076%=      5-min Rain = 0
KSE2 200529Z 14013KT 26/22 A3002 RMK A01 T02620217  RH  076%=      5-min Rain = 0
KSE2 200530Z 15009KT 26/22 A3003 RMK A01 T02620217  RH  076%=      5-min Rain = 0
KSE2 200531Z 14010KT 26/22 A3003 RMK A01 T02620217  RH  076%=      5-min Rain = 0
KSE2 200532Z 15011KT 26/22 A3003 RMK A01 T02620217  RH  076%=      5-min Rain = 0
KSE2 200533Z 14009KT 26/22 A3003 RMK A01 T02620217  RH  076%=      5-min Rain = 0
KSE2 200534Z 13011KT 26/22 A3003 RMK A01 T02620217  RH  076%=      5-min Rain = 0
KSE2 200535Z 14009G14KT 26/22 A3003 RMK A01 T02610217  RH  077%=      5-min Rain = 0
KSE2 200536Z 13012G18KT 26/22 A3003 RMK A01 T02610217  RH  077%=      5-min Rain = 0
KSE2 200537Z 14012KT 26/22 A3003 RMK A01 T02610218  RH  077%=      5-min Rain = 0
KSE2 200538Z 13010KT 26/22 A3003 RMK A01 T02600218  RH  077%=      5-min Rain = 0
KSE2 200539Z 14012KT 26/22 A3003 RMK A01 T02600217  RH  077%=      5-min Rain = 0
KSE2 200540Z 14011KT 26/22 A3003 RMK A01 T02600217  RH  077%=      5-min Rain = 0
KSE2 200541Z 13009KT 26/22 A3003 RMK A01 T02600218  RH  077%=      5-min Rain = 0
KSE2 200542Z 13013KT 26/22 A3003 RMK A01 T02600217  RH  078%=      5-min Rain = 0
KSE2 200543Z 14011G16KT 26/22 A3003 RMK A01 T02590217  RH  078%=      5-min Rain = 0
KSE2 200544Z 15014KT 26/22 A3003 RMK A01 T02590217  RH  078%=      5-min Rain = 0
KSE2 200545Z 15013KT 26/22 A3003 RMK A01 T02590217  RH  078%=      5-min Rain = 0
KSE2 200546Z 14014KT 26/22 A3003 RMK A01 T02590217  RH  078%=      5-min Rain = 0
KSE2 200547Z 14012KT 26/22 A3003 RMK A01 T02590217  RH  078%=      5-min Rain = 0
KSE2 200548Z 15012KT 26/22 A3003 RMK A01 T02590217  RH  078%=      5-min Rain = 0
KSE2 200549Z 15011KT 26/22 A3003 RMK A01 T02590217  RH  078%=      5-min Rain = 0
KSE2 200550Z 14013G18KT 26/22 A3003 RMK A01 T02580217  RH  078%=      5-min Rain = 0
KSE2 200551Z 14013KT 26/22 A3003 RMK A01 T02580217  RH  078%=      5-min Rain = 0
KSE2 200552Z 14010KT 26/22 A3003 RMK A01 T02580217  RH  078%=      5-min Rain = 0
KSE2 200553Z 14012KT 26/22 A3003 RMK A01 T02570217  RH  078%=      5-min Rain = 0
KSE2 200554Z 15014KT 26/22 A3002 RMK A01 T02570216  RH  078%=      5-min Rain = 0
KSE2 200555Z 14012KT 26/22 A3002 RMK A01 T02570216  RH  078%=      5-min Rain = 0
KSE2 200556Z 15014KT 26/22 A3002 RMK A01 T02570216  RH  078%=      5-min Rain = 0
KSE2 200557Z 14012KT 26/22 A3002 RMK A01 T02570216  RH  078%=      5-min Rain = 0
KSE2 200558Z 14011KT 26/22 A3002 RMK A01 T02560215  RH  078%=      5-min Rain = 0
KSE2 200559Z 15014KT 26/22 A3002 RMK A01 T02560216  RH  078%=      5-min Rain = 0
KSE2 200600Z 15015KT 26/22 A3002 RMK A01 T02560215  RH  078%=      5-min Rain = 0
KSE2 200601Z 15011KT 26/22 A3002 RMK A01 T02560215  RH  078%=      5-min Rain = 0
KSE2 200602Z 15012KT 26/22 A3002 RMK A01 T02560215  RH  078%=      5-min Rain = 0
KSE2 200603Z 14014KT 26/22 A3002 RMK A01 T02560215  RH  078%=      5-min Rain = 0
KSE2 200604Z 15011KT 26/22 A3002 RMK A01 T02560215  RH  078%=      5-min Rain = 0
KSE2 200605Z 15015KT 26/21 A3002 RMK A01 T02550214  RH  078%=      5-min Rain = 0
KSE2 200606Z 14012KT 26/22 A3002 RMK A01 T02560215  RH  078%=      5-min Rain = 0
KSE2 200607Z 14011KT 26/22 A3002 RMK A01 T02560215  RH  078%=      5-min Rain = 0
KSE2 200608Z 14010KT 26/21 A3002 RMK A01 T02550214  RH  078%=      5-min Rain = 0
KSE2 200609Z 14012KT 25/21 A3002 RMK A01 T02540214  RH  078%=      5-min Rain = 0
KSE2 200610Z 14011G16KT 25/21 A3002 RMK A01 T02540214  RH  078%=      5-min Rain = 0
KSE2 200611Z 14009G15KT 25/21 A3002 RMK A01 T02540214  RH  078%=      5-min Rain = 0
KSE2 200612Z 15010G15KT 25/21 A3002 RMK A01 T02540214  RH  079%=      5-min Rain = 0
KSE2 200613Z 14008KT 25/21 A3002 RMK A01 T02540214  RH  079%=      5-min Rain = 0
KSE2 200614Z 15012KT 25/21 A3002 RMK A01 T02530214  RH  079%=      5-min Rain = 0
KSE2 200615Z 13010KT 25/21 A3002 RMK A01 T02530214  RH  079%=      5-min Rain = 0
KSE2 200616Z 14011KT 25/21 A3002 RMK A01 T02530214  RH  079%=      5-min Rain = 0
KSE2 200617Z 14011KT 25/21 A3002 RMK A01 T02530214  RH  079%=      5-min Rain = 0
KSE2 200618Z 14011KT 25/21 A3002 RMK A01 T02530214  RH  079%=      5-min Rain = 0
KSE2 200619Z 15010KT 25/21 A3002 RMK A01 T02520214  RH  079%=      5-min Rain = 0
KSE2 200620Z 15011G17KT 25/21 A3002 RMK A01 T02520214  RH  079%=      5-min Rain = 0
KSE2 200621Z 15012KT 25/21 A3002 RMK A01 T02520214  RH  079%=      5-min Rain = 0
KSE2 200622Z 14013KT 25/21 A3002 RMK A01 T02520214  RH  079%=      5-min Rain = 0
KSE2 200623Z 14013KT 25/21 A3002 RMK A01 T02520214  RH  079%=      5-min Rain = 0
KSE2 200624Z 15011KT 25/21 A3002 RMK A01 T02520213  RH  079%=      5-min Rain = 0
KSE2 200625Z 14011KT 25/21 A3002 RMK A01 T02520213  RH  079%=      5-min Rain = 0
KSE2 200626Z 15011G18KT 25/21 A3002 RMK A01 T02520214  RH  079%=      5-min Rain = 0
KSE2 200627Z 14012G17KT 25/21 A3002 RMK A01 T02510214  RH  080%=      5-min Rain = 0
KSE2 200628Z 15010KT 25/21 A3002 RMK A01 T02510214  RH  080%=      5-min Rain = 0
KSE2 200629Z 15009KT 25/21 A3003 RMK A01 T02510214  RH  080%=      5-min Rain = 0
KSE2 200630Z 14008KT 25/21 A3003 RMK A01 T02510214  RH  080%=      5-min Rain = 0
KSE2 200631Z 14011G17KT 25/21 A3003 RMK A01 T02500213  RH  080%=      5-min Rain = 0
KSE2 200632Z 14014KT 25/21 A3003 RMK A01 T02500213  RH  080%=      5-min Rain = 0
KSE2 200633Z 15015G20KT 25/21 A3003 RMK A01 T02500213  RH  080%=      5-min Rain = 0
KSE2 200634Z 15012KT 25/21 A3003 RMK A01 T02500213  RH  080%=      5-min Rain = 0
KSE2 200635Z 14014KT 25/21 A3003 RMK A01 T02500213  RH  080%=      5-min Rain = 0
KSE2 200636Z 14011KT 25/21 A3003 RMK A01 T02500213  RH  080%=      5-min Rain = 0
KSE2 200637Z 14010KT 25/21 A3003 RMK A01 T02500213  RH  080%=      5-min Rain = 0
KSE2 200638Z 15011KT 25/21 A3003 RMK A01 T02490213  RH  080%=      5-min Rain = 0
KSE2 200639Z 14013KT 25/21 A3002 RMK A01 T02490213  RH  080%=      5-min Rain = 0
KSE2 200640Z 14010KT 25/21 A3003 RMK A01 T02490212  RH  080%=      5-min Rain = 0
KSE2 200641Z 15012KT 25/21 A3003 RMK A01 T02490212  RH  080%=      5-min Rain = 0
KSE2 200642Z 15012KT 25/21 A3003 RMK A01 T02480212  RH  080%=      5-min Rain = 0
KSE2 200643Z 15011KT 25/21 A3003 RMK A01 T02480212  RH  080%=      5-min Rain = 0
KSE2 200644Z 15012KT 25/21 A3003 RMK A01 T02480212  RH  080%=      5-min Rain = 0
KSE2 200645Z 15008KT 25/21 A3003 RMK A01 T02480212  RH  080%=      5-min Rain = 0
KSE2 200646Z 15013KT 25/21 A3003 RMK A01 T02480212  RH  080%=      5-min Rain = 0
KSE2 200647Z 15013KT 25/21 A3003 RMK A01 T02470211  RH  080%=      5-min Rain = 0
KSE2 200648Z 16011KT 25/21 A3003 RMK A01 T02470210  RH  080%=      5-min Rain = 0
KSE2 200649Z 15012KT 25/21 A3003 RMK A01 T02480211  RH  080%=      5-min Rain = 0
KSE2 200650Z 16011G16KT 25/21 A3003 RMK A01 T02470210  RH  080%=      5-min Rain = 0
KSE2 200651Z 15011KT 25/21 A3003 RMK A01 T02470210  RH  080%=      5-min Rain = 0
KSE2 200652Z 14011KT 25/21 A3003 RMK A01 T02470210  RH  080%=      5-min Rain = 0
KSE2 200653Z 15009KT 25/21 A3003 RMK A01 T02460209  RH  080%=      5-min Rain = 0
KSE2 200654Z 15009KT 25/21 A3003 RMK A01 T02470210  RH  080%=      5-min Rain = 0
KSE2 200655Z 15014KT 25/21 A3003 RMK A01 T02460209  RH  080%=      5-min Rain = 0
KSE2 200656Z 15015KT 25/21 A3002 RMK A01 T02460209  RH  080%=      5-min Rain = 0
KSE2 200657Z 15014KT 25/21 A3002 RMK A01 T02460208  RH  079%=      5-min Rain = 0
KSE2 200658Z 14012G17KT 25/21 A3002 RMK A01 T02460208  RH  079%=      5-min Rain = 0
KSE2 200659Z 16011KT 25/21 A3002 RMK A01 T02460208  RH  079%=      5-min Rain = 0
KSE2 200700Z 15011KT 25/21 A3002 RMK A01 T02460208  RH  079%=      5-min Rain = 0
KSE2 200701Z 16011G16KT 25/21 A3002 RMK A01 T02460208  RH  079%=      5-min Rain = 0
KSE2 200702Z 15010KT 25/21 A3002 RMK A01 T02460208  RH  080%=      5-min Rain = 0
KSE2 200703Z 16013KT 25/21 A3002 RMK A01 T02460208  RH  080%=      5-min Rain = 0
KSE2 200704Z 15012KT 25/21 A3002 RMK A01 T02450208  RH  080%=      5-min Rain = 0
KSE2 200705Z 15011G16KT 25/21 A3002 RMK A01 T02450208  RH  080%=      5-min Rain = 0
KSE2 200706Z 15011KT 25/21 A3002 RMK A01 T02450208  RH  080%=      5-min Rain = 0
KSE2 200707Z 15010G15KT 25/21 A3002 RMK A01 T02450208  RH  080%=      5-min Rain = 0
KSE2 200708Z 16011KT 25/21 A3002 RMK A01 T02450207  RH  080%=      5-min Rain = 0
KSE2 200709Z 16013KT 25/21 A3002 RMK A01 T02450208  RH  080%=      5-min Rain = 0
KSE2 200710Z 15009KT 25/21 A3002 RMK A01 T02450208  RH  080%=      5-min Rain = 0
KSE2 200711Z 15012KT 24/21 A3002 RMK A01 T02440207  RH  080%=      5-min Rain = 0
KSE2 200712Z 15014KT 24/21 A3002 RMK A01 T02440208  RH  080%=      5-min Rain = 0
KSE2 200713Z 15011KT 24/21 A3002 RMK A01 T02440207  RH  080%=      5-min Rain = 0
KSE2 200714Z 15012KT 24/21 A3002 RMK A01 T02440207  RH  080%=      5-min Rain = 0
KSE2 200715Z 15012KT 24/21 A3002 RMK A01 T02440207  RH  080%=      5-min Rain = 0
KSE2 200716Z 15008KT 24/21 A3002 RMK A01 T02440207  RH  080%=      5-min Rain = 0
KSE2 200717Z 15010G15KT 24/21 A3002 RMK A01 T02430207  RH  080%=      5-min Rain = 0
KSE2 200718Z 15011G16KT 24/21 A3002 RMK A01 T02430207  RH  080%=      5-min Rain = 0
KSE2 200719Z 15011KT 24/21 A3002 RMK A01 T02430207  RH  080%=      5-min Rain = 0
KSE2 200720Z 15011KT 24/21 A3002 RMK A01 T02430207  RH  080%=      5-min Rain = 0
KSE2 200721Z 15010KT 24/21 A3002 RMK A01 T02430207  RH  080%=      5-min Rain = 0
KSE2 200722Z 15010KT 24/21 A3002 RMK A01 T02420206  RH  080%=      5-min Rain = 0
KSE2 200723Z 15008KT 24/21 A3002 RMK A01 T02420207  RH  080%=      5-min Rain = 0
KSE2 200724Z 15011KT 24/21 A3002 RMK A01 T02420206  RH  081%=      5-min Rain = 0
KSE2 200725Z 15011KT 24/21 A3002 RMK A01 T02410206  RH  081%=      5-min Rain = 0
KSE2 200726Z 16009G14KT 24/21 A3002 RMK A01 T02420206  RH  081%=      5-min Rain = 0
KSE2 200727Z 15013KT 24/21 A3002 RMK A01 T02410206  RH  081%=      5-min Rain = 0
KSE2 200728Z 15013KT 24/21 A3002 RMK A01 T02410206  RH  081%=      5-min Rain = 0
KSE2 200729Z 15010KT 24/21 A3002 RMK A01 T02420206  RH  080%=      5-min Rain = 0
KSE2 200730Z 15009KT 24/21 A3002 RMK A01 T02410206  RH  080%=      5-min Rain = 0
KSE2 200731Z 15010KT 24/21 A3002 RMK A01 T02410205  RH  080%=      5-min Rain = 0
KSE2 200732Z 15012KT 24/21 A3002 RMK A01 T02410205  RH  080%=      5-min Rain = 0
KSE2 200733Z 15012KT 24/20 A3001 RMK A01 T02410204  RH  080%=      5-min Rain = 0
KSE2 200734Z 15012G18KT 24/20 A3001 RMK A01 T02410204  RH  080%=      5-min Rain = 0
KSE2 200735Z 15010KT 24/20 A3002 RMK A01 T02400204  RH  080%=      5-min Rain = 0
KSE2 200736Z 14010KT 24/20 A3002 RMK A01 T02400204  RH  080%=      5-min Rain = 0
KSE2 200737Z 15010KT 24/20 A3001 RMK A01 T02400204  RH  080%=      5-min Rain = 0
KSE2 200738Z 15009KT 24/20 A3001 RMK A01 T02400204  RH  080%=      5-min Rain = 0
KSE2 200739Z 16008KT 24/20 A3001 RMK A01 T02390204  RH  081%=      5-min Rain = 0
KSE2 200740Z 15009KT 24/20 A3001 RMK A01 T02390204  RH  081%=      5-min Rain = 0
KSE2 200741Z 15010KT 24/20 A3001 RMK A01 T02390204  RH  081%=      5-min Rain = 0
KSE2 200742Z 15010KT 24/20 A3001 RMK A01 T02390204  RH  081%=      5-min Rain = 0
KSE2 200743Z 15008KT 24/20 A3001 RMK A01 T02390204  RH  081%=      5-min Rain = 0
KSE2 200744Z 14011KT 24/20 A3001 RMK A01 T02380204  RH  081%=      5-min Rain = 0
KSE2 200745Z 15009KT 24/20 A3001 RMK A01 T02380204  RH  081%=      5-min Rain = 0
KSE2 200746Z 15009G14KT 24/20 A3001 RMK A01 T02380204  RH  081%=      5-min Rain = 0
KSE2 200747Z 14008KT 24/20 A3001 RMK A01 T02380204  RH  081%=      5-min Rain = 0
KSE2 200748Z 15009KT 24/20 A3001 RMK A01 T02370204  RH  082%=      5-min Rain = 0
KSE2 200749Z 15010KT 24/20 A3001 RMK A01 T02370204  RH  082%=      5-min Rain = 0
KSE2 200750Z 15010KT 24/20 A3001 RMK A01 T02370204  RH  082%=      5-min Rain = 0
KSE2 200751Z 15010G17KT 24/20 A3001 RMK A01 T02370204  RH  082%=      5-min Rain = 0
KSE2 200752Z 15012KT 24/20 A3001 RMK A01 T02370204  RH  082%=      5-min Rain = 0
KSE2 200753Z 14010KT 24/20 A3001 RMK A01 T02370204  RH  082%=      5-min Rain = 0
KSE2 200754Z 15009KT 24/20 A3001 RMK A01 T02370204  RH  082%=      5-min Rain = 0
KSE2 200755Z 14008KT 24/20 A3001 RMK A01 T02360204  RH  082%=      5-min Rain = 0
KSE2 200756Z 14011G16KT 24/20 A3001 RMK A01 T02360203  RH  082%=      5-min Rain = 0
KSE2 200757Z 15010KT 24/20 A3001 RMK A01 T02360203  RH  082%=      5-min Rain = 0
KSE2 200758Z 15009KT 24/20 A3001 RMK A01 T02360203  RH  082%=      5-min Rain = 0
KSE2 200759Z 15011KT 24/20 A3001 RMK A01 T02360203  RH  082%=      5-min Rain = 0
KSE2 200800Z 15011G16KT 24/20 A3001 RMK A01 T02350203  RH  082%=      5-min Rain = 0
KSE2 200801Z 15010G15KT 24/20 A3001 RMK A01 T02350202  RH  082%=      5-min Rain = 0
KSE2 200802Z 15012G17KT 24/20 A3001 RMK A01 T02350202  RH  082%=      5-min Rain = 0
KSE2 200803Z 15010KT 24/20 A3001 RMK A01 T02350202  RH  082%=      5-min Rain = 0
KSE2 200804Z 14011KT 23/20 A3001 RMK A01 T02340201  RH  082%=      5-min Rain = 0
KSE2 200805Z 15010KT 23/20 A3001 RMK A01 T02340201  RH  082%=      5-min Rain = 0
KSE2 200806Z 14009KT 23/20 A3001 RMK A01 T02340201  RH  082%=      5-min Rain = 0
KSE2 200807Z 15008KT 23/20 A3001 RMK A01 T02340201  RH  082%=      5-min Rain = 0
KSE2 200808Z 16008G13KT 23/20 A3001 RMK A01 T02330201  RH  082%=      5-min Rain = 0
KSE2 200809Z 15009KT 23/20 A3001 RMK A01 T02330201  RH  082%=      5-min Rain = 0
KSE2 200810Z 15009KT 23/20 A3001 RMK A01 T02330201  RH  082%=      5-min Rain = 0
KSE2 200811Z 15011KT 23/20 A3001 RMK A01 T02330201  RH  082%=      5-min Rain = 0
KSE2 200812Z 15009KT 23/20 A3001 RMK A01 T02330201  RH  082%=      5-min Rain = 0
KSE2 200813Z 15009KT 23/20 A3001 RMK A01 T02330200  RH  082%=      5-min Rain = 0
KSE2 200814Z 15011KT 23/20 A3001 RMK A01 T02320200  RH  082%=      5-min Rain = 0
KSE2 200815Z 15011KT 23/20 A3001 RMK A01 T02320200  RH  082%=      5-min Rain = 0
KSE2 200816Z 15009KT 23/20 A3001 RMK A01 T02320200  RH  082%=      5-min Rain = 0
KSE2 200817Z 14009KT 23/20 A3001 RMK A01 T02320200  RH  082%=      5-min Rain = 0
KSE2 200818Z 15009KT 23/20 A3001 RMK A01 T02310200  RH  082%=      5-min Rain = 0
KSE2 200819Z 15009KT 23/20 A3001 RMK A01 T02310200  RH  082%=      5-min Rain = 0
KSE2 200820Z 15008KT 23/20 A3001 RMK A01 T02310200  RH  082%=      5-min Rain = 0
KSE2 200821Z 15010KT 23/20 A3001 RMK A01 T02310200  RH  082%=      5-min Rain = 0
KSE2 200822Z 15008KT 23/20 A3001 RMK A01 T02310200  RH  083%=      5-min Rain = 0
KSE2 200823Z 15007KT 23/20 A3001 RMK A01 T02300199  RH  083%=      5-min Rain = 0
KSE2 200824Z 14011KT 23/20 A3001 RMK A01 T02300199  RH  083%=      5-min Rain = 0
KSE2 200825Z 15008KT 23/20 A3001 RMK A01 T02300199  RH  083%=      5-min Rain = 0
KSE2 200826Z 15011KT 23/20 A3001 RMK A01 T02300199  RH  083%=      5-min Rain = 0
KSE2 200827Z 14008KT 23/20 A3001 RMK A01 T02300199  RH  083%=      5-min Rain = 0
KSE2 200828Z 15008KT 23/20 A3001 RMK A01 T02290199  RH  083%=      5-min Rain = 0
KSE2 200829Z 15009KT 23/20 A3001 RMK A01 T02290199  RH  083%=      5-min Rain = 0
KSE2 200830Z 15008KT 23/20 A3001 RMK A01 T02290199  RH  083%=      5-min Rain = 0
KSE2 200831Z 15010KT 23/20 A3001 RMK A01 T02290198  RH  083%=      5-min Rain = 0
KSE2 200832Z 15012KT 23/20 A3001 RMK A01 T02280198  RH  083%=      5-min Rain = 0
KSE2 200833Z 15011KT 23/20 A3001 RMK A01 T02280198  RH  083%=      5-min Rain = 0
KSE2 200834Z 15010KT 23/20 A30 RMK A01 T02280198  RH  083%=      5-min Rain = 0
KSE2 200835Z 15010KT 23/20 A30 RMK A01 T02280198  RH  083%=      5-min Rain = 0
KSE2 200836Z 15010KT 23/20 A30 RMK A01 T02280198  RH  083%=      5-min Rain = 0
KSE2 200837Z 16009KT 23/20 A30 RMK A01 T02280198  RH  083%=      5-min Rain = 0
KSE2 200838Z 15010KT 23/20 A30 RMK A01 T02280198  RH  083%=      5-min Rain = 0
KSE2 200839Z 15009KT 23/20 A30 RMK A01 T02280198  RH  083%=      5-min Rain = 0
KSE2 200840Z 15010KT 23/20 A30 RMK A01 T02270198  RH  083%=      5-min Rain = 0
KSE2 200841Z 15010KT 23/20 A30 RMK A01 T02270197  RH  083%=      5-min Rain = 0
KSE2 200842Z 15010KT 23/20 A30 RMK A01 T02270197  RH  083%=      5-min Rain = 0
KSE2 200843Z 14008KT 23/20 A30 RMK A01 T02270197  RH  083%=      5-min Rain = 0
KSE2 200844Z 15007G12KT 23/20 A30 RMK A01 T02260197  RH  083%=      5-min Rain = 0
KSE2 200845Z 15007KT 23/20 A3001 RMK A01 T02260197  RH  083%=      5-min Rain = 0
KSE2 200846Z 15009KT 23/20 A3001 RMK A01 T02260197  RH  084%=      5-min Rain = 0
KSE2 200847Z 16007KT 23/20 A3001 RMK A01 T02260197  RH  084%=      5-min Rain = 0
KSE2 200848Z 16008KT 23/20 A3001 RMK A01 T02250197  RH  084%=      5-min Rain = 0
KSE2 200849Z 14008KT 23/20 A3001 RMK A01 T02250197  RH  084%=      5-min Rain = 0
KSE2 200850Z 16009KT 23/20 A3001 RMK A01 T02250196  RH  084%=      5-min Rain = 0
KSE2 200851Z 16007KT 23/20 A3001 RMK A01 T02250197  RH  084%=      5-min Rain = 0
KSE2 200852Z 16009KT 23/20 A3001 RMK A01 T02250196  RH  084%=      5-min Rain = 0
KSE2 200853Z 16007KT 22/20 A3001 RMK A01 T02240196  RH  084%=      5-min Rain = 0
KSE2 200854Z 15008KT 22/20 A3001 RMK A01 T02240196  RH  084%=      5-min Rain = 0
KSE2 200855Z 15008KT 22/20 A3001 RMK A01 T02240196  RH  084%=      5-min Rain = 0
KSE2 200856Z 15009KT 22/20 A3001 RMK A01 T02240196  RH  084%=      5-min Rain = 0
KSE2 200857Z 15009KT 22/20 A3001 RMK A01 T02240196  RH  084%=      5-min Rain = 0
KSE2 200858Z 15008KT 22/20 A3001 RMK A01 T02240196  RH  084%=      5-min Rain = 0
KSE2 200859Z 15009KT 22/20 A3001 RMK A01 T02240196  RH  084%=      5-min Rain = 0
KSE2 200900Z 15008KT 22/20 A3001 RMK A01 T02230196  RH  084%=      5-min Rain = 0
KSE2 200901Z 15007KT 22/20 A3001 RMK A01 T02230196  RH  084%=      5-min Rain = 0
KSE2 200902Z 16007KT 22/20 A3001 RMK A01 T02230196  RH  085%=      5-min Rain = 0
KSE2 200903Z 15007KT 22/20 A3001 RMK A01 T02220196  RH  085%=      5-min Rain = 0
KSE2 200904Z 15007KT 22/20 A30 RMK A01 T02220196  RH  085%=      5-min Rain = 0
KSE2 200905Z 15007KT 22/20 A30 RMK A01 T02220195  RH  085%=      5-min Rain = 0
KSE2 200906Z 16008KT 22/20 A30 RMK A01 T02210195  RH  085%=      5-min Rain = 0
KSE2 200907Z 16009KT 22/20 A30 RMK A01 T02220196  RH  085%=      5-min Rain = 0
KSE2 200908Z 16007KT 22/20 A30 RMK A01 T02210195  RH  085%=      5-min Rain = 0
KSE2 200909Z 15008KT 22/20 A30 RMK A01 T02210195  RH  085%=      5-min Rain = 0
KSE2 200910Z 17006KT 22/20 A30 RMK A01 T02220195  RH  085%=      5-min Rain = 0
KSE2 200911Z 16008KT 22/20 A30 RMK A01 T02210195  RH  085%=      5-min Rain = 0
KSE2 200912Z 16006KT 22/20 A30 RMK A01 T02210195  RH  085%=      5-min Rain = 0
KSE2 200913Z 17007KT 22/20 A30 RMK A01 T02210195  RH  085%=      5-min Rain = 0
KSE2 200914Z 16010KT 22/20 A30 RMK A01 T02200195  RH  086%=      5-min Rain = 0
KSE2 200915Z 16008KT 22/20 A30 RMK A01 T02200195  RH  086%=      5-min Rain = 0
KSE2 200916Z 16009KT 22/20 A30 RMK A01 T02200195  RH  086%=      5-min Rain = 0
KSE2 200917Z 16007KT 22/20 A30 RMK A01 T02200195  RH  086%=      5-min Rain = 0
KSE2 200918Z 16008KT 22/20 A30 RMK A01 T02200195  RH  086%=      5-min Rain = 0
KSE2 200919Z 15010KT 22/20 A30 RMK A01 T02190195  RH  086%=      5-min Rain = 0
KSE2 200920Z 16010KT 22/20 A30 RMK A01 T02190195  RH  086%=      5-min Rain = 0
KSE2 200921Z 15008KT 22/20 A30 RMK A01 T02200195  RH  086%=      5-min Rain = 0
KSE2 200922Z 16009KT 22/20 A30 RMK A01 T02190195  RH  086%=      5-min Rain = 0
KSE2 200923Z 15010G15KT 22/20 A30 RMK A01 T02190195  RH  086%=      5-min Rain = 0
KSE2 200924Z 16010KT 22/20 A30 RMK A01 T02200195  RH  086%=      5-min Rain = 0
KSE2 200925Z 16010KT 22/20 A30 RMK A01 T02190195  RH  086%=      5-min Rain = 0
KSE2 200926Z 16009KT 22/20 A30 RMK A01 T02190195  RH  086%=      5-min Rain = 0
KSE2 200927Z 16011KT 22/20 A30 RMK A01 T02200195  RH  086%=      5-min Rain = 0
KSE2 200928Z 17009KT 22/20 A30 RMK A01 T02200195  RH  086%=      5-min Rain = 0
KSE2 200929Z 16009KT 22/20 A30 RMK A01 T02190195  RH  086%=      5-min Rain = 0
KSE2 200930Z 16008KT 22/20 A30 RMK A01 T02190195  RH  086%=      5-min Rain = 0
KSE2 200931Z 16010KT 22/20 A30 RMK A01 T02190195  RH  086%=      5-min Rain = 0
KSE2 200932Z 17008KT 22/20 A30 RMK A01 T02190195  RH  087%=      5-min Rain = 0
KSE2 200933Z 17007KT 22/20 A30 RMK A01 T02190195  RH  087%=      5-min Rain = 0
KSE2 200934Z 16008KT 22/20 A30 RMK A01 T02190195  RH  087%=      5-min Rain = 0
KSE2 200935Z 17008KT 22/20 A30 RMK A01 T02180195  RH  087%=      5-min Rain = 0
KSE2 200936Z 17011KT 22/20 A30 RMK A01 T02180195  RH  087%=      5-min Rain = 0
KSE2 200937Z 16011KT 22/20 A3001 RMK A01 T02180195  RH  087%=      5-min Rain = 0
KSE2 200938Z 16010KT 22/20 A3001 RMK A01 T02180195  RH  087%=      5-min Rain = 0
KSE2 200939Z 17009KT 22/20 A30 RMK A01 T02180195  RH  087%=      5-min Rain = 0
KSE2 200940Z 17009KT 22/20 A30 RMK A01 T02170195  RH  087%=      5-min Rain = 0
KSE2 200941Z 17010KT 22/20 A30 RMK A01 T02180195  RH  087%=      5-min Rain = 0
KSE2 200942Z 16010G15KT 22/20 A30 RMK A01 T02180196  RH  087%=      5-min Rain = 0
KSE2 200943Z 16009G14KT 22/20 A30 RMK A01 T02180196  RH  087%=      5-min Rain = 0
KSE2 200944Z 17010KT 22/20 A30 RMK A01 T02180196  RH  087%=      5-min Rain = 0
KSE2 200945Z 16009KT 22/20 A30 RMK A01 T02180196  RH  087%=      5-min Rain = 0
KSE2 200946Z 16008KT 22/20 A30 RMK A01 T02170195  RH  087%=      5-min Rain = 0
KSE2 200947Z 16007KT 22/20 A30 RMK A01 T02170195  RH  087%=      5-min Rain = 0
KSE2 200948Z 16008KT 22/20 A30 RMK A01 T02170195  RH  088%=      5-min Rain = 0
KSE2 200949Z 16009KT 22/20 A30 RMK A01 T02160195  RH  088%=      5-min Rain = 0
KSE2 200950Z 16009KT 22/20 A30 RMK A01 T02160196  RH  088%=      5-min Rain = 0
KSE2 200951Z 16010KT 22/20 A30 RMK A01 T02160196  RH  088%=      5-min Rain = 0
KSE2 200952Z 16008KT 22/20 A30 RMK A01 T02160196  RH  088%=      5-min Rain = 0
KSE2 200953Z 16008KT 22/20 A30 RMK A01 T02160195  RH  088%=      5-min Rain = 0
KSE2 200954Z 16009KT 22/20 A30 RMK A01 T02160195  RH  088%=      5-min Rain = 0
KSE2 200955Z 17009KT 22/20 A30 RMK A01 T02160195  RH  088%=      5-min Rain = 0
KSE2 200956Z 16009KT 22/20 A30 RMK A01 T02150195  RH  088%=      5-min Rain = 0
KSE2 200957Z 17008KT 22/20 A30 RMK A01 T02150196  RH  088%=      5-min Rain = 0
KSE2 200958Z 17010KT 22/20 A30 RMK A01 T02150195  RH  088%=      5-min Rain = 0
KSE2 200959Z 16009KT 22/20 A30 RMK A01 T02150196  RH  089%=      5-min Rain = 0
KSE2 201000Z 17009G14KT 22/20 A30 RMK A01 T02160196  RH  089%=      5-min Rain = 0
KSE2 201001Z 16010KT 22/20 A30 RMK A01 T02150196  RH  089%=      5-min Rain = 0
KSE2 201002Z 16010KT 22/20 A30 RMK A01 T02150196  RH  089%=      5-min Rain = 0
KSE2 201003Z 16010KT 22/20 A30 RMK A01 T02160196  RH  089%=      5-min Rain = 0
KSE2 201004Z 16009KT 22/20 A30 RMK A01 T02160196  RH  089%=      5-min Rain = 0
KSE2 201005Z 16008KT 22/20 A30 RMK A01 T02150196  RH  089%=      5-min Rain = 0
KSE2 201006Z 16009KT 22/20 A2999 RMK A01 T02150196  RH  089%=      5-min Rain = 0
KSE2 201007Z 16007KT 22/20 A2999 RMK A01 T02160197  RH  089%=      5-min Rain = 0
KSE2 201008Z 16007KT 22/20 A2999 RMK A01 T02150196  RH  089%=      5-min Rain = 0
KSE2 201009Z 17009KT 22/20 A30 RMK A01 T02150197  RH  089%=      5-min Rain = 0
KSE2 201010Z 17009KT 22/20 A30 RMK A01 T02150197  RH  089%=      5-min Rain = 0
KSE2 201011Z 16008KT 22/20 A30 RMK A01 T02150197  RH  089%=      5-min Rain = 0
KSE2 201012Z 16007KT 22/20 A30 RMK A01 T02150197  RH  089%=      5-min Rain = 0
KSE2 201013Z 17007KT 22/20 A30 RMK A01 T02150197  RH  089%=      5-min Rain = 0
KSE2 201014Z 17007KT 22/20 A30 RMK A01 T02150197  RH  089%=      5-min Rain = 0
KSE2 201015Z 16008KT 22/20 A30 RMK A01 T02150197  RH  089%=      5-min Rain = 0
KSE2 201016Z 16008KT 21/20 A30 RMK A01 T02140197  RH  090%=      5-min Rain = 0
KSE2 201017Z 16011KT 22/20 A30 RMK A01 T02150197  RH  090%=      5-min Rain = 0
KSE2 201018Z 16010KT 21/20 A2999 RMK A01 T02140197  RH  090%=      5-min Rain = 0
KSE2 201019Z 17007KT 22/20 A2999 RMK A01 T02150197  RH  090%=      5-min Rain = 0
KSE2 201020Z 17007KT 22/20 A2999 RMK A01 T02150197  RH  090%=      5-min Rain = 0
KSE2 201021Z 16008KT 21/20 A2999 RMK A01 T02140196  RH  089%=      5-min Rain = 0
KSE2 201022Z 16009KT 22/20 A2999 RMK A01 T02150197  RH  090%=      5-min Rain = 0
KSE2 201023Z 16009KT 22/20 A2999 RMK A01 T02150197  RH  090%=      5-min Rain = 0
KSE2 201024Z 16009KT 21/20 A2999 RMK A01 T02140197  RH  090%=      5-min Rain = 0
KSE2 201025Z 17009KT 21/20 A2999 RMK A01 T02140197  RH  090%=      5-min Rain = 0
KSE2 201026Z 16007KT 22/20 A2999 RMK A01 T02150197  RH  090%=      5-min Rain = 0
KSE2 201027Z 17008KT 22/20 A2999 RMK A01 T02150197  RH  090%=      5-min Rain = 0
KSE2 201028Z 16009KT 22/20 A2999 RMK A01 T02150197  RH  090%=      5-min Rain = 0
KSE2 201029Z 16010KT 22/20 A2999 RMK A01 T02150197  RH  090%=      5-min Rain = 0
KSE2 201030Z 17007KT 21/20 A2999 RMK A01 T02140197  RH  090%=      5-min Rain = 0
KSE2 201031Z 17006KT 21/20 A2999 RMK A01 T02140196  RH  090%=      5-min Rain = 0
KSE2 201032Z 17009KT 21/20 A2999 RMK A01 T02140196  RH  090%=      5-min Rain = 0
KSE2 201033Z 17007KT 21/20 A2999 RMK A01 T02140196  RH  090%=      5-min Rain = 0
KSE2 201034Z 16008KT 21/20 A2999 RMK A01 T02140196  RH  090%=      5-min Rain = 0
KSE2 201035Z 16009KT 21/20 A2999 RMK A01 T02140196  RH  090%=      5-min Rain = 0
KSE2 201036Z 16011KT 21/20 A2999 RMK A01 T02140196  RH  089%=      5-min Rain = 0
KSE2 201037Z 17010KT 21/20 A2999 RMK A01 T02140196  RH  089%=      5-min Rain = 0
KSE2 201038Z 17009KT 22/20 A2999 RMK A01 T02150196  RH  089%=      5-min Rain = 0
KSE2 201039Z 16011KT 22/20 A2999 RMK A01 T02150196  RH  089%=      5-min Rain = 0
KSE2 201040Z 16010KT 22/20 A2999 RMK A01 T02150196  RH  089%=      5-min Rain = 0
KSE2 201041Z 16011KT 21/20 A2999 RMK A01 T02140195  RH  089%=      5-min Rain = 0
KSE2 201042Z 16010KT 22/20 A2999 RMK A01 T02150196  RH  089%=      5-min Rain = 0
KSE2 201043Z 16007KT 22/20 A2999 RMK A01 T02150196  RH  089%=      5-min Rain = 0
KSE2 201044Z 16009KT 21/20 A2999 RMK A01 T02140196  RH  089%=      5-min Rain = 0
KSE2 201045Z 15010KT 21/20 A2999 RMK A01 T02140196  RH  089%=      5-min Rain = 0
KSE2 201046Z 16012KT 21/20 A2999 RMK A01 T02140196  RH  089%=      5-min Rain = 0
KSE2 201047Z 16011KT 21/20 A2999 RMK A01 T02140196  RH  089%=      5-min Rain = 0
KSE2 201048Z 16011KT 21/20 A2999 RMK A01 T02140196  RH  089%=      5-min Rain = 0
KSE2 201049Z 15012KT 22/20 A2999 RMK A01 T02150196  RH  089%=      5-min Rain = 0
KSE2 201050Z 15009KT 22/20 A2999 RMK A01 T02150196  RH  089%=      5-min Rain = 0
KSE2 201051Z 15012KT 21/20 A2999 RMK A01 T02140196  RH  089%=      5-min Rain = 0
KSE2 201052Z 16009KT 21/20 A2999 RMK A01 T02140196  RH  089%=      5-min Rain = 0
KSE2 201053Z 16011KT 21/20 A2999 RMK A01 T02140196  RH  089%=      5-min Rain = 0
KSE2 201054Z 15010KT 21/20 A2999 RMK A01 T02140196  RH  089%=      5-min Rain = 0
KSE2 201055Z 16009KT 21/20 A2999 RMK A01 T02140196  RH  089%=      5-min Rain = 0
KSE2 201056Z 16008KT 22/20 A2999 RMK A01 T02150196  RH  089%=      5-min Rain = 0
KSE2 201057Z 16011KT 21/20 A2999 RMK A01 T02140196  RH  090%=      5-min Rain = 0
KSE2 201058Z 16008KT 21/20 A2999 RMK A01 T02140196  RH  090%=      5-min Rain = 0
KSE2 201059Z 16010KT 21/20 A2999 RMK A01 T02140196  RH  090%=      5-min Rain = 0
KSE2 201100Z 16012KT 21/20 A2999 RMK A01 T02140196  RH  090%=      5-min Rain = 0
KSE2 201101Z 16009KT 21/20 A2999 RMK A01 T02140196  RH  090%=      5-min Rain = 0
KSE2 201102Z 16007KT 21/20 A2999 RMK A01 T02140196  RH  090%=      5-min Rain = 0
KSE2 201103Z 16008KT 21/20 A2999 RMK A01 T02130196  RH  090%=      5-min Rain = 0
KSE2 201104Z 16012KT 21/20 A2999 RMK A01 T02130196  RH  090%=      5-min Rain = 0
KSE2 201105Z 16010KT 21/20 A2999 RMK A01 T02130196  RH  090%=      5-min Rain = 0
KSE2 201106Z 16011KT 21/20 A2999 RMK A01 T02130196  RH  090%=      5-min Rain = 0
KSE2 201107Z 16009KT 21/20 A2999 RMK A01 T02130196  RH  090%=      5-min Rain = 0
KSE2 201108Z 16011KT 21/20 A2999 RMK A01 T02130196  RH  090%=      5-min Rain = 0
KSE2 201109Z 16010KT 21/20 A2999 RMK A01 T02130196  RH  090%=      5-min Rain = 0
KSE2 201110Z 16010KT 21/20 A2999 RMK A01 T02130196  RH  090%=      5-min Rain = 0
KSE2 201111Z 16008KT 21/20 A2999 RMK A01 T02130196  RH  090%=      5-min Rain = 0
KSE2 201112Z 16009KT 21/20 A2999 RMK A01 T02130196  RH  090%=      5-min Rain = 0
KSE2 201113Z 16007KT 21/20 A2999 RMK A01 T02120196  RH  090%=      5-min Rain = 0
KSE2 201114Z 15008KT 21/20 A2999 RMK A01 T02120196  RH  090%=      5-min Rain = 0
KSE2 201115Z 15007KT 21/20 A2999 RMK A01 T02120196  RH  091%=      5-min Rain = 0
KSE2 201116Z 16007KT 21/20 A2999 RMK A01 T02120196  RH  091%=      5-min Rain = 0
KSE2 201117Z 16009G14KT 21/20 A2999 RMK A01 T02110196  RH  091%=      5-min Rain = 0
KSE2 201118Z 15007KT 21/20 A2999 RMK A01 T02110196  RH  091%=      5-min Rain = 0
KSE2 201119Z 16007KT 21/20 A2999 RMK A01 T02110196  RH  091%=      5-min Rain = 0
KSE2 201120Z 16007KT 21/20 A2999 RMK A01 T02110196  RH  091%=      5-min Rain = 0
KSE2 201121Z 16009KT 21/20 A2999 RMK A01 T02110196  RH  091%=      5-min Rain = 0
KSE2 201122Z 16010KT 21/20 A2999 RMK A01 T02110196  RH  091%=      5-min Rain = 0
KSE2 201123Z 16007KT 21/20 A2999 RMK A01 T02110196  RH  091%=      5-min Rain = 0
KSE2 201124Z 16008KT 21/20 A2999 RMK A01 T02110196  RH  091%=      5-min Rain = 0
KSE2 201125Z 17006KT 21/20 A2999 RMK A01 T02110195  RH  091%=      5-min Rain = 0
KSE2 201126Z 16008KT 21/20 A2999 RMK A01 T02110196  RH  091%=      5-min Rain = 0
KSE2 201127Z 16008KT 21/20 A2999 RMK A01 T02100196  RH  091%=      5-min Rain = 0
KSE2 201128Z 15008KT 21/20 A2999 RMK A01 T02100195  RH  091%=      5-min Rain = 0
KSE2 201129Z 15009KT 21/20 A2999 RMK A01 T02110196  RH  091%=      5-min Rain = 0
KSE2 201130Z 15008KT 21/20 A2999 RMK A01 T02100196  RH  091%=      5-min Rain = 0
KSE2 201131Z 15008KT 21/20 A2999 RMK A01 T02100196  RH  091%=      5-min Rain = 0
KSE2 201132Z 15007KT 21/20 A2999 RMK A01 T02110196  RH  091%=      5-min Rain = 0
KSE2 201133Z 15008KT 21/20 A2999 RMK A01 T02100196  RH  091%=      5-min Rain = 0
KSE2 201134Z 15010KT 21/20 A2999 RMK A01 T02100196  RH  091%=      5-min Rain = 0
KSE2 201135Z 15009G14KT 21/20 A2999 RMK A01 T02100196  RH  092%=      5-min Rain = 0
KSE2 201136Z 15008KT 21/20 A2999 RMK A01 T02100196  RH  092%=      5-min Rain = 0
KSE2 201137Z 16008KT 21/20 A2999 RMK A01 T02100196  RH  092%=      5-min Rain = 0
KSE2 201138Z 15008KT 21/20 A2999 RMK A01 T02100196  RH  092%=      5-min Rain = 0
KSE2 201139Z 16009KT 21/20 A2999 RMK A01 T02100196  RH  092%=      5-min Rain = 0
KSE2 201140Z 16008KT 21/20 A2999 RMK A01 T02100196  RH  092%=      5-min Rain = 0
KSE2 201141Z 16007KT 21/20 A2999 RMK A01 T02100196  RH  092%=      5-min Rain = 0
KSE2 201142Z 15007KT 21/20 A2999 RMK A01 T02100196  RH  092%=      5-min Rain = 0
KSE2 201143Z 15006KT 21/20 A2999 RMK A01 T02090196  RH  092%=      5-min Rain = 0
KSE2 201144Z 16008KT 21/20 A2999 RMK A01 T02090195  RH  092%=      5-min Rain = 0
KSE2 201145Z 15008KT 21/20 A2999 RMK A01 T02090196  RH  092%=      5-min Rain = 0
KSE2 201146Z 15009KT 21/20 A2999 RMK A01 T02090196  RH  092%=      5-min Rain = 0
KSE2 201147Z 16008KT 21/20 A2999 RMK A01 T02090196  RH  092%=      5-min Rain = 0
KSE2 201148Z 16009KT 21/20 A2999 RMK A01 T02090195  RH  092%=      5-min Rain = 0
KSE2 201149Z 15008KT 21/20 A2999 RMK A01 T02090196  RH  092%=      5-min Rain = 0
KSE2 201150Z 15008KT 21/20 A2999 RMK A01 T02090196  RH  092%=      5-min Rain = 0
KSE2 201151Z 15009KT 21/20 A2999 RMK A01 T02090196  RH  092%=      5-min Rain = 0
KSE2 201152Z 16008KT 21/20 A2999 RMK A01 T02090196  RH  092%=      5-min Rain = 0
KSE2 201153Z 15008KT 21/20 A2999 RMK A01 T02090196  RH  092%=      5-min Rain = 0
KSE2 201154Z 15010KT 21/20 A2999 RMK A01 T02090196  RH  092%=      5-min Rain = 0
KSE2 201155Z 15008KT 21/20 A2999 RMK A01 T02090196  RH  092%=      5-min Rain = 0
KSE2 201156Z 15008KT 21/20 A2999 RMK A01 T02090196  RH  092%=      5-min Rain = 0
KSE2 201157Z 16009KT 21/20 A2999 RMK A01 T02090196  RH  092%=      5-min Rain = 0
KSE2 201158Z 16009KT 21/20 A2999 RMK A01 T02090196  RH  092%=      5-min Rain = 0
KSE2 201159Z 16008KT 21/20 A2999 RMK A01 T02090196  RH  092%=      5-min Rain = 0
KSE2 201200Z 15007KT 21/20 A2999 RMK A01 T02090196  RH  092%=      5-min Rain = 0
KSE2 201201Z 16006KT 21/20 A2999 RMK A01 T02090196  RH  092%=      5-min Rain = 0
KSE2 201202Z 15010KT 21/20 A2999 RMK A01 T02090196  RH  092%=      5-min Rain = 0
KSE2 201203Z 16009KT 21/20 A2999 RMK A01 T02090196  RH  092%=      5-min Rain = 0
KSE2 201204Z 15010KT 21/20 A2999 RMK A01 T02090196  RH  092%=      5-min Rain = 0
KSE2 201205Z 15010KT 21/20 A2999 RMK A01 T02090196  RH  092%=      5-min Rain = 0
KSE2 201206Z 15009KT 21/20 A2999 RMK A01 T02090195  RH  092%=      5-min Rain = 0
KSE2 201207Z 15009KT 21/20 A2999 RMK A01 T02090195  RH  092%=      5-min Rain = 0
KSE2 201208Z 15010KT 21/20 A2999 RMK A01 T02090196  RH  092%=      5-min Rain = 0
KSE2 201209Z 15008KT 21/20 A2999 RMK A01 T02090196  RH  092%=      5-min Rain = 0
KSE2 201210Z 16008KT 21/20 A2999 RMK A01 T02090196  RH  092%=      5-min Rain = 0
KSE2 201211Z 15007KT 21/20 A2999 RMK A01 T02090195  RH  092%=      5-min Rain = 0
KSE2 201212Z 15009KT 21/20 A2999 RMK A01 T02090196  RH  092%=      5-min Rain = 0
KSE2 201213Z 15007KT 21/20 A2999 RMK A01 T02090196  RH  092%=      5-min Rain = 0
KSE2 201214Z 15008KT 21/20 A2999 RMK A01 T02090196  RH  092%=      5-min Rain = 0
KSE2 201215Z 16009KT 21/20 A2999 RMK A01 T02100196  RH  092%=      5-min Rain = 0
KSE2 201216Z 15006KT 21/20 A2999 RMK A01 T02100196  RH  092%=      5-min Rain = 0
KSE2 201217Z 15008KT 21/20 A2999 RMK A01 T02100196  RH  092%=      5-min Rain = 0
KSE2 201218Z 16009KT 21/20 A2999 RMK A01 T02100196  RH  092%=      5-min Rain = 0
KSE2 201219Z 16008KT 21/20 A2999 RMK A01 T02110197  RH  092%=      5-min Rain = 0
KSE2 201220Z 16008KT 21/20 A2999 RMK A01 T02110196  RH  091%=      5-min Rain = 0
KSE2 201221Z 17007KT 21/20 A2999 RMK A01 T02110196  RH  091%=      5-min Rain = 0
KSE2 201222Z 16008KT 21/20 A2999 RMK A01 T02110196  RH  091%=      5-min Rain = 0
KSE2 201223Z 16009KT 21/20 A2999 RMK A01 T02110197  RH  091%=      5-min Rain = 0
KSE2 201224Z 16010KT 21/20 A2999 RMK A01 T02120197  RH  091%=      5-min Rain = 0
KSE2 201225Z 16008KT 21/20 A2999 RMK A01 T02120197  RH  091%=      5-min Rain = 0
KSE2 201226Z 15010KT 21/20 A2999 RMK A01 T02120197  RH  091%=      5-min Rain = 0
KSE2 201227Z 15008KT 21/20 A2999 RMK A01 T02130197  RH  091%=      5-min Rain = 0
KSE2 201228Z 16008KT 21/20 A2999 RMK A01 T02130197  RH  091%=      5-min Rain = 0
KSE2 201229Z 15009KT 21/20 A2999 RMK A01 T02130197  RH  090%=      5-min Rain = 0
KSE2 201230Z 16009KT 21/20 A2999 RMK A01 T02140197  RH  090%=      5-min Rain = 0
KSE2 201231Z 16009KT 21/20 A2999 RMK A01 T02140197  RH  090%=      5-min Rain = 0
KSE2 201232Z 15010G15KT 22/20 A2999 RMK A01 T02150198  RH  090%=      5-min Rain = 0
KSE2 201233Z 16007KT 22/20 A2999 RMK A01 T02150197  RH  090%=      5-min Rain = 0
KSE2 201234Z 16008G13KT 22/20 A2999 RMK A01 T02150197  RH  090%=      5-min Rain = 0
KSE2 201235Z 15010KT 22/20 A2999 RMK A01 T02150198  RH  090%=      5-min Rain = 0
KSE2 201236Z 15007KT 22/20 A2999 RMK A01 T02160198  RH  090%=      5-min Rain = 0
KSE2 201237Z 16009KT 22/20 A2999 RMK A01 T02160198  RH  089%=      5-min Rain = 0
KSE2 201238Z 15011KT 22/20 A2999 RMK A01 T02170198  RH  089%=      5-min Rain = 0
KSE2 201239Z 15009KT 22/20 A2999 RMK A01 T02170198  RH  089%=      5-min Rain = 0
KSE2 201240Z 15010KT 22/20 A2999 RMK A01 T02170198  RH  089%=      5-min Rain = 0
KSE2 201241Z 14012KT 22/20 A2999 RMK A01 T02180199  RH  089%=      5-min Rain = 0
KSE2 201242Z 16009KT 22/20 A2999 RMK A01 T02180198  RH  089%=      5-min Rain = 0
KSE2 201243Z 16011KT 22/20 A2999 RMK A01 T02180199  RH  089%=      5-min Rain = 0
KSE2 201244Z 16010KT 22/20 A2999 RMK A01 T02180199  RH  089%=      5-min Rain = 0
KSE2 201245Z 15009KT 22/20 A30 RMK A01 T02180199  RH  089%=      5-min Rain = 0
KSE2 201246Z 15008KT 22/20 A30 RMK A01 T02190199  RH  088%=      5-min Rain = 0
KSE2 201247Z 14009KT 22/20 A30 RMK A01 T02200199  RH  088%=      5-min Rain = 0
KSE2 201248Z 16008KT 22/20 A30 RMK A01 T02200199  RH  088%=      5-min Rain = 0
KSE2 201249Z 15009KT 22/20 A30 RMK A01 T02200199  RH  088%=      5-min Rain = 0
KSE2 201250Z 15009KT 22/20 A30 RMK A01 T02200199  RH  088%=      5-min Rain = 0
KSE2 201251Z 15008KT 22/20 A30 RMK A01 T02200199  RH  088%=      5-min Rain = 0
KSE2 201252Z 15009G14KT 22/20 A30 RMK A01 T02210199  RH  088%=      5-min Rain = 0
KSE2 201253Z 15009KT 22/20 A30 RMK A01 T02210200  RH  088%=      5-min Rain = 0
KSE2 201254Z 14008KT 22/20 A30 RMK A01 T02210200  RH  088%=      5-min Rain = 0
KSE2 201255Z 14007G12KT 22/20 A30 RMK A01 T02210200  RH  088%=      5-min Rain = 0
KSE2 201256Z 15010KT 22/20 A30 RMK A01 T02220200  RH  088%=      5-min Rain = 0
KSE2 201257Z 15010KT 22/20 A30 RMK A01 T02220200  RH  087%=      5-min Rain = 0
KSE2 201258Z 15009KT 22/20 A30 RMK A01 T02220200  RH  087%=      5-min Rain = 0
KSE2 201259Z 15010KT 22/20 A30 RMK A01 T02220200  RH  087%=      5-min Rain = 0
KSE2 201300Z 15010KT 22/20 A30 RMK A01 T02220200  RH  087%=      5-min Rain = 0
KSE2 201301Z 15009KT 22/20 A30 RMK A01 T02230200  RH  087%=      5-min Rain = 0
KSE2 201302Z 15009G14KT 22/20 A30 RMK A01 T02230201  RH  087%=      5-min Rain = 0
KSE2 201303Z 15012KT 22/20 A30 RMK A01 T02240201  RH  087%=      5-min Rain = 0
KSE2 201304Z 15011KT 22/20 A30 RMK A01 T02240200  RH  086%=      5-min Rain = 0
KSE2 201305Z 17009KT 22/20 A30 RMK A01 T02240200  RH  086%=      5-min Rain = 0
KSE2 201306Z 15009KT 23/20 A30 RMK A01 T02250201  RH  086%=      5-min Rain = 0
KSE2 201307Z 16010KT 23/20 A30 RMK A01 T02250201  RH  086%=      5-min Rain = 0
KSE2 201308Z 15010KT 23/20 A30 RMK A01 T02260201  RH  086%=      5-min Rain = 0
KSE2 201309Z 16011G18KT 23/20 A30 RMK A01 T02260201  RH  086%=      5-min Rain = 0
KSE2 201310Z 16013KT 23/20 A30 RMK A01 T02260201  RH  085%=      5-min Rain = 0
KSE2 201311Z 15011KT 23/20 A3001 RMK A01 T02260200  RH  085%=      5-min Rain = 0
KSE2 201312Z 15011KT 23/20 A3001 RMK A01 T02260201  RH  085%=      5-min Rain = 0
KSE2 201313Z 15010KT 23/20 A3001 RMK A01 T02260201  RH  085%=      5-min Rain = 0
KSE2 201314Z 16011KT 23/20 A3001 RMK A01 T02260201  RH  085%=      5-min Rain = 0
KSE2 201315Z 16010KT 23/20 A3001 RMK A01 T02260201  RH  085%=      5-min Rain = 0
KSE2 201316Z 17011KT 23/20 A3001 RMK A01 T02260201  RH  085%=      5-min Rain = 0
KSE2 201317Z 15009KT 23/20 A3001 RMK A01 T02260200  RH  085%=      5-min Rain = 0
KSE2 201318Z 15012KT 23/20 A3001 RMK A01 T02270201  RH  085%=      5-min Rain = 0
KSE2 201319Z 16013KT 23/20 A3001 RMK A01 T02270201  RH  085%=      5-min Rain = 0
KSE2 201320Z 16011KT 23/20 A3001 RMK A01 T02270201  RH  085%=      5-min Rain = 0
KSE2 201321Z 16009G14KT 23/20 A3001 RMK A01 T02270201  RH  085%=      5-min Rain = 0
KSE2 201322Z 16011G17KT 23/20 A3001 RMK A01 T02270201  RH  085%=      5-min Rain = 0
KSE2 201323Z 15013KT 23/20 A3001 RMK A01 T02280201  RH  085%=      5-min Rain = 0
KSE2 201324Z 16012KT 23/20 A3001 RMK A01 T02280201  RH  085%=      5-min Rain = 0
KSE2 201325Z 16011KT 23/20 A3001 RMK A01 T02280201  RH  085%=      5-min Rain = 0
KSE2 201326Z 16012KT 23/20 A3001 RMK A01 T02280201  RH  084%=      5-min Rain = 0
KSE2 201327Z 17010KT 23/20 A3001 RMK A01 T02290201  RH  084%=      5-min Rain = 0
KSE2 201328Z 15011KT 23/20 A3001 RMK A01 T02290201  RH  084%=      5-min Rain = 0
KSE2 201329Z 15010KT 23/20 A3001 RMK A01 T02290201  RH  084%=      5-min Rain = 0
KSE2 201330Z 17009KT 23/20 A3001 RMK A01 T02300202  RH  084%=      5-min Rain = 0
KSE2 201331Z 17008KT 23/20 A3002 RMK A01 T02300202  RH  084%=      5-min Rain = 0
KSE2 201332Z 16009KT 23/20 A3002 RMK A01 T02310202  RH  084%=      5-min Rain = 0
KSE2 201333Z 16010KT 23/20 A3002 RMK A01 T02310202  RH  084%=      5-min Rain = 0
KSE2 201334Z 16010KT 23/20 A3002 RMK A01 T02310202  RH  083%=      5-min Rain = 0
KSE2 201335Z 16010KT 23/20 A3002 RMK A01 T02320202  RH  083%=      5-min Rain = 0
KSE2 201336Z 16007KT 23/20 A3002 RMK A01 T02320202  RH  083%=      5-min Rain = 0
KSE2 201337Z 16010G15KT 23/20 A3002 RMK A01 T02330203  RH  083%=      5-min Rain = 0
KSE2 201338Z 15010KT 23/20 A3002 RMK A01 T02330202  RH  083%=      5-min Rain = 0
KSE2 201339Z 16010G20KT 23/20 A3002 RMK A01 T02330202  RH  083%=      5-min Rain = 0
KSE2 201340Z 17012KT 23/20 A3002 RMK A01 T02330201  RH  082%=      5-min Rain = 0
KSE2 201341Z 17012KT 23/20 A3002 RMK A01 T02340202  RH  082%=      5-min Rain = 0
KSE2 201342Z 17011KT 23/20 A3002 RMK A01 T02340201  RH  082%=      5-min Rain = 0
KSE2 201343Z 17013KT 23/20 A3002 RMK A01 T02340201  RH  082%=      5-min Rain = 0
KSE2 201344Z 16013KT 23/20 A3002 RMK A01 T02340201  RH  082%=      5-min Rain = 0
KSE2 201345Z 16011G16KT 23/20 A3002 RMK A01 T02340201  RH  082%=      5-min Rain = 0
KSE2 201346Z 16010KT 23/20 A3002 RMK A01 T02340201  RH  082%=      5-min Rain = 0
KSE2 201347Z 17011KT 23/20 A3002 RMK A01 T02340201  RH  082%=      5-min Rain = 0
KSE2 201348Z 16010KT 23/20 A3002 RMK A01 T02340201  RH  082%=      5-min Rain = 0
KSE2 201349Z 15011KT 24/20 A3002 RMK A01 T02350202  RH  082%=      5-min Rain = 0
KSE2 201350Z 16010KT 24/20 A3002 RMK A01 T02360202  RH  081%=      5-min Rain = 0
KSE2 201351Z 15012KT 24/20 A3002 RMK A01 T02360201  RH  081%=      5-min Rain = 0
KSE2 201352Z 16012G17KT 24/20 A3002 RMK A01 T02360201  RH  081%=      5-min Rain = 0
KSE2 201353Z 15013G18KT 24/20 A3003 RMK A01 T02360202  RH  081%=      5-min Rain = 0
KSE2 201354Z 15009G14KT 24/20 A3003 RMK A01 T02370202  RH  080%=      5-min Rain = 0
KSE2 201355Z 16010G16KT 24/20 A3003 RMK A01 T02390203  RH  080%=      5-min Rain = 0
KSE2 201356Z 16009KT 24/20 A3003 RMK A01 T02400203  RH  080%=      5-min Rain = 0
KSE2 201357Z 17009KT 24/20 A3003 RMK A01 T02410203  RH  079%=      5-min Rain = 0
KSE2 201358Z 16010G15KT 24/20 A3003 RMK A01 T02410203  RH  079%=      5-min Rain = 0
KSE2 201359Z 17010KT 24/20 A3003 RMK A01 T02400201  RH  079%=      5-min Rain = 0
KSE2 201400Z 17012KT 24/20 A3003 RMK A01 T02390202  RH  080%=      5-min Rain = 0
KSE2 201401Z 17009KT 24/20 A3003 RMK A01 T02390202  RH  080%=      5-min Rain = 0
KSE2 201402Z 17013KT 24/20 A3003 RMK A01 T02390202  RH  080%=      5-min Rain = 0
KSE2 201403Z 16011KT 24/20 A3003 RMK A01 T02390201  RH  079%=      5-min Rain = 0
KSE2 201404Z 17009G14KT 24/20 A3003 RMK A01 T02390202  RH  079%=      5-min Rain = 0
KSE2 201405Z 16011G16KT 24/20 A3003 RMK A01 T02410202  RH  079%=      5-min Rain = 0
KSE2 201406Z 16011KT 24/20 A3003 RMK A01 T02410202  RH  079%=      5-min Rain = 0
KSE2 201407Z 18009KT 24/20 A3003 RMK A01 T02410202  RH  079%=      5-min Rain = 0
KSE2 201408Z 18009G14KT 24/20 A3003 RMK A01 T02420203  RH  079%=      5-min Rain = 0
KSE2 201409Z 16009G15KT 24/20 A3003 RMK A01 T02430204  RH  079%=      5-min Rain = 0
KSE2 201410Z 15009KT 24/20 A3003 RMK A01 T02430203  RH  078%=      5-min Rain = 0
KSE2 201411Z 17009KT 24/20 A3003 RMK A01 T02430204  RH  079%=      5-min Rain = 0
KSE2 201412Z 17010KT 24/20 A3003 RMK A01 T02440204  RH  078%=      5-min Rain = 0
KSE2 201413Z 17012KT 24/20 A3003 RMK A01 T02440203  RH  078%=      5-min Rain = 0
KSE2 201414Z 17010KT 24/20 A3003 RMK A01 T02430202  RH  078%=      5-min Rain = 0
KSE2 201415Z 16012G17KT 24/20 A3003 RMK A01 T02420203  RH  078%=      5-min Rain = 0
KSE2 201416Z 17014KT 24/20 A3003 RMK A01 T02430202  RH  078%=      5-min Rain = 0
KSE2 201417Z 16013G18KT 25/20 A3003 RMK A01 T02450203  RH  078%=      5-min Rain = 0
KSE2 201418Z 16012KT 25/20 A3003 RMK A01 T02450203  RH  077%=      5-min Rain = 0
KSE2 201419Z 18011G16KT 25/20 A3003 RMK A01 T02450203  RH  077%=      5-min Rain = 0
KSE2 201420Z 18012KT 25/20 A3003 RMK A01 T02460203  RH  077%=      5-min Rain = 0
KSE2 201421Z 16012KT 25/20 A3003 RMK A01 T02470203  RH  077%=      5-min Rain = 0
KSE2 201422Z 16012KT 25/20 A3003 RMK A01 T02470203  RH  077%=      5-min Rain = 0
KSE2 201423Z 16011KT 25/20 A3003 RMK A01 T02460203  RH  077%=      5-min Rain = 0
KSE2 201424Z 17012G17KT 25/20 A3003 RMK A01 T02470204  RH  077%=      5-min Rain = 0
KSE2 201425Z 17012KT 25/20 A3003 RMK A01 T02460202  RH  077%=      5-min Rain = 0
KSE2 201426Z 18011G19KT 25/20 A3003 RMK A01 T02450202  RH  077%=      5-min Rain = 0
KSE2 201427Z 19013G18KT 25/20 A3003 RMK A01 T02460202  RH  077%=      5-min Rain = 0
KSE2 201428Z 19010G15KT 25/20 A3003 RMK A01 T02450202  RH  077%=      5-min Rain = 0
KSE2 201429Z 18012KT 25/20 A3003 RMK A01 T02450202  RH  077%=      5-min Rain = 0
KSE2 201430Z 19011KT 25/20 A3003 RMK A01 T02460203  RH  077%=      5-min Rain = 0
KSE2 201431Z 18012KT 25/20 A3003 RMK A01 T02470203  RH  076%=      5-min Rain = 0
KSE2 201432Z 18012KT 25/20 A3003 RMK A01 T02480203  RH  076%=      5-min Rain = 0
KSE2 201433Z 17008KT 25/20 A3003 RMK A01 T02490204  RH  076%=      5-min Rain = 0
KSE2 201434Z 16011KT 25/20 A3003 RMK A01 T02500204  RH  075%=      5-min Rain = 0
KSE2 201435Z 16011G16KT 25/20 A3004 RMK A01 T02500203  RH  075%=      5-min Rain = 0
KSE2 201436Z 17011KT 25/20 A3004 RMK A01 T02490203  RH  076%=      5-min Rain = 0
KSE2 201437Z 18014KT 25/20 A3004 RMK A01 T02470202  RH  076%=      5-min Rain = 0
KSE2 201438Z 17013KT 25/20 A3004 RMK A01 T02460202  RH  076%=      5-min Rain = 0
KSE2 201439Z 17012KT 25/20 A3004 RMK A01 T02460202  RH  077%=      5-min Rain = 0
KSE2 201440Z 17010G15KT 25/20 A3004 RMK A01 T02460202  RH  077%=      5-min Rain = 0
KSE2 201441Z 18012KT 25/20 A3004 RMK A01 T02460203  RH  077%=      5-min Rain = 0
KSE2 201442Z 18014KT 25/20 A3004 RMK A01 T02460202  RH  077%=      5-min Rain = 0
KSE2 201443Z 18012KT 25/20 A3004 RMK A01 T02460203  RH  077%=      5-min Rain = 0
KSE2 201444Z 18010KT 25/20 A3004 RMK A01 T02470203  RH  076%=      5-min Rain = 0
KSE2 201445Z 18011KT 25/20 A3004 RMK A01 T02490204  RH  076%=      5-min Rain = 0
KSE2 201446Z 18010G16KT 25/20 A3004 RMK A01 T02500203  RH  075%=      5-min Rain = 0
KSE2 201447Z 18012KT 25/20 A3004 RMK A01 T02500204  RH  076%=      5-min Rain = 0
KSE2 201448Z 18012G17KT 25/20 A3004 RMK A01 T02510203  RH  075%=      5-min Rain = 0
KSE2 201449Z 19010G16KT 25/20 A3004 RMK A01 T02490203  RH  075%=      5-min Rain = 0
KSE2 201450Z 19012KT 25/20 A3004 RMK A01 T02490203  RH  075%=      5-min Rain = 0
KSE2 201451Z 18011KT 25/20 A3004 RMK A01 T02490203  RH  075%=      5-min Rain = 0
KSE2 201452Z 18008KT 25/20 A3004 RMK A01 T02500204  RH  076%=      5-min Rain = 0
KSE2 201453Z 18009KT 25/21 A3004 RMK A01 T02510205  RH  075%=      5-min Rain = 0
KSE2 201454Z 18011KT 25/20 A3004 RMK A01 T02520204  RH  075%=      5-min Rain = 0
KSE2 201455Z 19009G14KT 25/20 A3004 RMK A01 T02520204  RH  075%=      5-min Rain = 0
KSE2 201456Z 18010KT 25/20 A3004 RMK A01 T02520203  RH  074%=      5-min Rain = 0
KSE2 201457Z 17008G13KT 25/21 A3004 RMK A01 T02530205  RH  075%=      5-min Rain = 0
KSE2 201458Z 17009G14KT 26/21 A3004 RMK A01 T02590208  RH  074%=      5-min Rain = 0
KSE2 201459Z 16009KT 26/21 A3004 RMK A01 T02620208  RH  072%=      5-min Rain = 0
KSE2 201500Z 16011KT 26/21 A3004 RMK A01 T02620205  RH  071%=      5-min Rain = 0
KSE2 201501Z 16011KT 26/20 A3004 RMK A01 T02590204  RH  071%=      5-min Rain = 0
KSE2 201502Z 18011KT 26/21 A3004 RMK A01 T02590205  RH  072%=      5-min Rain = 0
KSE2 201503Z 17011KT 26/21 A3004 RMK A01 T02580205  RH  072%=      5-min Rain = 0
KSE2 201504Z 17011KT 26/21 A3004 RMK A01 T02580205  RH  072%=      5-min Rain = 0
KSE2 201505Z 18009KT 26/21 A3004 RMK A01 T02570205  RH  073%=      5-min Rain = 0
KSE2 201506Z 18007KT 26/20 A3004 RMK A01 T02570204  RH  072%=      5-min Rain = 0
KSE2 201507Z 18013KT 26/20 A3004 RMK A01 T02570204  RH  072%=      5-min Rain = 0
KSE2 201508Z 17010KT 26/20 A3004 RMK A01 T02580203  RH  072%=      5-min Rain = 0
KSE2 201509Z 15011G17KT 26/21 A3004 RMK A01 T02610205  RH  071%=      5-min Rain = 0
KSE2 201510Z 15013KT 27/20 A3004 RMK A01 T02650204  RH  069%=      5-min Rain = 0
KSE2 201511Z 15013KT 26/20 A3004 RMK A01 T02630202  RH  069%=      5-min Rain = 0
KSE2 201512Z 16012KT 26/20 A3004 RMK A01 T02610203  RH  070%=      5-min Rain = 0
KSE2 201513Z 16011KT 26/20 A3004 RMK A01 T02620203  RH  070%=      5-min Rain = 0
KSE2 201514Z 16012KT 26/20 A3004 RMK A01 T02620203  RH  070%=      5-min Rain = 0
KSE2 201515Z 17010KT 26/20 A3004 RMK A01 T02620203  RH  070%=      5-min Rain = 0
KSE2 201516Z 16009KT 26/20 A3004 RMK A01 T02620204  RH  070%=      5-min Rain = 0
KSE2 201517Z 16011G16KT 26/21 A3004 RMK A01 T02640205  RH  070%=      5-min Rain = 0
KSE2 201518Z 16011KT 27/20 A3004 RMK A01 T02650204  RH  069%=      5-min Rain = 0
KSE2 201519Z 16010KT 26/20 A3004 RMK A01 T02640203  RH  069%=      5-min Rain = 0
KSE2 201520Z 16008KT 27/21 A3004 RMK A01 T02650205  RH  070%=      5-min Rain = 0
KSE2 201521Z 17009KT 27/21 A3004 RMK A01 T02680206  RH  069%=      5-min Rain = 0
KSE2 201522Z 16012KT 27/21 A3003 RMK A01 T02690205  RH  068%=      5-min Rain = 0
KSE2 201523Z 16011KT 27/20 A3004 RMK A01 T02680204  RH  068%=      5-min Rain = 0
KSE2 201524Z 16010KT 27/20 A3004 RMK A01 T02680203  RH  067%=      5-min Rain = 0
KSE2 201525Z 17011KT 27/20 A3004 RMK A01 T02680203  RH  067%=      5-min Rain = 0
KSE2 201526Z 17009G14KT 27/20 A3004 RMK A01 T02680204  RH  068%=      5-min Rain = 0
KSE2 201527Z 15009KT 27/21 A3003 RMK A01 T02700206  RH  068%=      5-min Rain = 0
KSE2 201528Z 17010KT 27/21 A3003 RMK A01 T02710206  RH  067%=      5-min Rain = 0
KSE2 201529Z 15008KT 27/21 A3003 RMK A01 T02700205  RH  067%=      5-min Rain = 0
KSE2 201530Z 15011KT 27/20 A3003 RMK A01 T02690204  RH  067%=      5-min Rain = 0
KSE2 201531Z 15010KT 27/21 A3003 RMK A01 T02690205  RH  068%=      5-min Rain = 0
KSE2 201532Z 17007KT 27/21 A3004 RMK A01 T02700206  RH  068%=      5-min Rain = 0
KSE2 201533Z 18009KT 27/21 A3004 RMK A01 T02720205  RH  067%=      5-min Rain = 0
KSE2 201534Z 17008KT 27/21 A3004 RMK A01 T02720206  RH  067%=      5-min Rain = 0
KSE2 201535Z 16011KT 28/21 A3003 RMK A01 T02750207  RH  066%=      5-min Rain = 0
KSE2 201536Z 18009KT 28/21 A3004 RMK A01 T02750205  RH  066%=      5-min Rain = 0
KSE2 201537Z 19010KT 27/21 A3004 RMK A01 T02740205  RH  066%=      5-min Rain = 0
KSE2 201538Z 17009KT 28/21 A3004 RMK A01 T02750205  RH  066%=      5-min Rain = 0
KSE2 201539Z 16011KT 28/21 A3004 RMK A01 T02780206  RH  065%=      5-min Rain = 0
KSE2 201540Z 15014KT 28/20 A3004 RMK A01 T02780204  RH  064%=      5-min Rain = 0
KSE2 201541Z 17011KT 28/20 A3004 RMK A01 T02750203  RH  065%=      5-min Rain = 0
KSE2 201542Z 15009KT 27/20 A3004 RMK A01 T02740204  RH  065%=      5-min Rain = 0
KSE2 201543Z 16013KT 28/20 A3004 RMK A01 T02750203  RH  065%=      5-min Rain = 0
KSE2 201544Z 17010G16KT 28/20 A3004 RMK A01 T02750202  RH  065%=      5-min Rain = 0
KSE2 201545Z 17008G13KT 27/20 A3004 RMK A01 T02740204  RH  065%=      5-min Rain = 0
KSE2 201546Z 19013KT 28/20 A3004 RMK A01 T02760204  RH  065%=      5-min Rain = 0
KSE2 201547Z 18010KT 28/20 A3004 RMK A01 T02760203  RH  064%=      5-min Rain = 0
KSE2 201548Z 18009KT 28/20 A3004 RMK A01 T02750203  RH  065%=      5-min Rain = 0
KSE2 201549Z 17013KT 28/20 A3004 RMK A01 T02770204  RH  065%=      5-min Rain = 0
KSE2 201550Z 18010G15KT 28/20 A3004 RMK A01 T02780203  RH  064%=      5-min Rain = 0
KSE2 201551Z 18012KT 28/20 A3004 RMK A01 T02790202  RH  063%=      5-min Rain = 0
KSE2 201552Z 16010KT 28/20 A3004 RMK A01 T02780204  RH  064%=      5-min Rain = 0
KSE2 201553Z 15011G17KT 28/20 A3003 RMK A01 T02780203  RH  064%=      5-min Rain = 0
KSE2 201554Z 17011KT 28/20 A3003 RMK A01 T02780202  RH  064%=      5-min Rain = 0
KSE2 201555Z 18012KT 28/20 A3003 RMK A01 T02790203  RH  063%=      5-min Rain = 0
KSE2 201556Z 17010G15KT 28/20 A3003 RMK A01 T02790202  RH  063%=      5-min Rain = 0
KSE2 201557Z 18011KT 28/20 A3003 RMK A01 T02790201  RH  063%=      5-min Rain = 0
KSE2 201558Z 15010KT 28/20 A3003 RMK A01 T02780202  RH  063%=      5-min Rain = 0
KSE2 201559Z 15009KT 28/20 A3003 RMK A01 T02800203  RH  063%=      5-min Rain = 0
KSE2 201600Z 17008KT 28/20 A3003 RMK A01 T02820204  RH  063%=      5-min Rain = 0
KSE2 201601Z 16008KT 29/21 A3003 RMK A01 T02850206  RH  062%=      5-min Rain = 0
KSE2 201602Z 19008KT 29/20 A3003 RMK A01 T02860204  RH  061%=      5-min Rain = 0
KSE2 201603Z 18008KT 29/20 A3003 RMK A01 T02860204  RH  061%=      5-min Rain = 0
KSE2 201604Z 19011KT 29/20 A3003 RMK A01 T02860203  RH  061%=      5-min Rain = 0
KSE2 201605Z 18009KT 29/20 A3003 RMK A01 T02850204  RH  061%=      5-min Rain = 0
KSE2 201606Z 16007KT 29/20 A3003 RMK A01 T02850203  RH  061%=      5-min Rain = 0
KSE2 201607Z 17007KT 29/20 A3003 RMK A01 T02850203  RH  061%=      5-min Rain = 0
KSE2 201608Z 18008KT 29/20 A3003 RMK A01 T02850204  RH  062%=      5-min Rain = 0
KSE2 201609Z 18007KT 29/20 A3003 RMK A01 T02870202  RH  060%=      5-min Rain = 0
KSE2 201610Z 19008G14KT 29/20 A3003 RMK A01 T02870203  RH  061%=      5-min Rain = 0
KSE2 201611Z 18012G17KT 29/20 A3003 RMK A01 T02870201  RH  060%=      5-min Rain = 0
KSE2 201612Z 18010KT 29/20 A3003 RMK A01 T02850202  RH  061%=      5-min Rain = 0
KSE2 201613Z 16009KT 29/20 A3003 RMK A01 T02850201  RH  060%=      5-min Rain = 0
KSE2 201614Z 17011KT 29/20 A3003 RMK A01 T02870202  RH  060%=      5-min Rain = 0
KSE2 201615Z 17012KT 29/20 A3003 RMK A01 T02880200  RH  059%=      5-min Rain = 0
KSE2 201616Z 16013KT 29/20 A3003 RMK A01 T02880201  RH  059%=      5-min Rain = 0
KSE2 201617Z 16011KT 29/20 A3003 RMK A01 T02870199  RH  059%=      5-min Rain = 0
KSE2 201618Z 16008KT 29/20 A3003 RMK A01 T02870199  RH  059%=      5-min Rain = 0
KSE2 201619Z 16009G15KT 29/20 A3003 RMK A01 T02890200  RH  058%=      5-min Rain = 0
KSE2 201620Z 16013G18KT 29/20 A3003 RMK A01 T02920199  RH  057%=      5-min Rain = 0
KSE2 201621Z 17012G17KT 29/20 A3003 RMK A01 T02920197  RH  056%=      5-min Rain = 0
KSE2 201622Z 17013KT 29/20 A3003 RMK A01 T02910195  RH  056%=      5-min Rain = 0
KSE2 201623Z 17012KT 29/20 A3003 RMK A01 T02900196  RH  057%=      5-min Rain = 0
KSE2 201624Z 16011KT 29/20 A3003 RMK A01 T02900197  RH  057%=      5-min Rain = 0
KSE2 201625Z 15011KT 29/20 A3003 RMK A01 T02900196  RH  057%=      5-min Rain = 0
KSE2 201626Z 17010KT 29/20 A3003 RMK A01 T02900197  RH  057%=      5-min Rain = 0
KSE2 201627Z 17007KT 29/20 A3003 RMK A01 T02900198  RH  058%=      5-min Rain = 0
KSE2 201628Z 18013KT 29/20 A3003 RMK A01 T02910199  RH  058%=      5-min Rain = 0
KSE2 201629Z 18010G16KT 29/20 A3003 RMK A01 T02920197  RH  057%=      5-min Rain = 0
KSE2 201630Z 18011KT 29/20 A3003 RMK A01 T02920197  RH  057%=      5-min Rain = 0
KSE2 201631Z 19010KT 29/20 A3003 RMK A01 T02920195  RH  056%=      5-min Rain = 0
KSE2 201632Z 18011G17KT 29/19 A3003 RMK A01 T02930194  RH  055%=      5-min Rain = 0
KSE2 201633Z 17010KT 29/20 A3003 RMK A01 T02940196  RH  055%=      5-min Rain = 0
KSE2 201634Z 19011KT 30/20 A3003 RMK A01 T02970198  RH  055%=      5-min Rain = 0
KSE2 201635Z 17009G16KT 30/20 A3003 RMK A01 T02980195  RH  054%=      5-min Rain = 0
KSE2 201636Z 16014KT 30/19 A3003 RMK A01 T02970193  RH  054%=      5-min Rain = 0
KSE2 201637Z 17010G16KT 29/19 A3003 RMK A01 T02940191  RH  054%=      5-min Rain = 0
KSE2 201638Z 18012KT 29/19 A3003 RMK A01 T02930192  RH  054%=      5-min Rain = 0
KSE2 201639Z 18009KT 30/19 A3003 RMK A01 T02950192  RH  054%=      5-min Rain = 0
KSE2 201640Z 17012KT 30/19 A3003 RMK A01 T02970193  RH  054%=      5-min Rain = 0
KSE2 201641Z 16009KT 30/19 A3003 RMK A01 T02960191  RH  053%=      5-min Rain = 0
KSE2 201642Z 16011KT 30/19 A3003 RMK A01 T02970188  RH  052%=      5-min Rain = 0
KSE2 201643Z 17011G17KT 30/19 A3003 RMK A01 T02980189  RH  052%=      5-min Rain = 0
KSE2 201644Z 17011G16KT 30/19 A3003 RMK A01 T02990189  RH  052%=      5-min Rain = 0
KSE2 201645Z 16013G18KT 30/19 A3003 RMK A01 T02990191  RH  052%=      5-min Rain = 0
KSE2 201646Z 17012KT 30/19 A3003 RMK A01 T02990192  RH  053%=      5-min Rain = 0
KSE2 201647Z 18011KT 30/19 A3003 RMK A01 T02990193  RH  053%=      5-min Rain = 0
KSE2 201648Z 17014KT 30/19 A3003 RMK A01 T03000191  RH  052%=      5-min Rain = 0
KSE2 201649Z 17012KT 30/19 A3003 RMK A01 T03010190  RH  052%=      5-min Rain = 0
KSE2 201650Z 17011G16KT 30/19 A3003 RMK A01 T03010192  RH  052%=      5-min Rain = 0
KSE2 201651Z 17010G16KT 30/19 A3003 RMK A01 T03010189  RH  051%=      5-min Rain = 0
KSE2 201652Z 16010KT 30/19 A3003 RMK A01 T03000189  RH  051%=      5-min Rain = 0
KSE2 201653Z 16011KT 30/19 A3003 RMK A01 T02990189  RH  052%=      5-min Rain = 0
KSE2 201654Z 16011G17KT 30/19 A3003 RMK A01 T03010194  RH  053%=      5-min Rain = 0
KSE2 201655Z 16011G17KT 30/19 A3003 RMK A01 T03030193  RH  052%=      5-min Rain = 0
KSE2 201656Z 15014KT 30/19 A3003 RMK A01 T03010191  RH  052%=      5-min Rain = 0
KSE2 201657Z 17011KT 30/19 A3003 RMK A01 T02990191  RH  052%=      5-min Rain = 0
KSE2 201658Z 15012G17KT 30/19 A3003 RMK A01 T02990191  RH  052%=      5-min Rain = 0
KSE2 201659Z 16011KT 30/19 A3003 RMK A01 T03000190  RH  052%=      5-min Rain = 0
KSE2 201700Z 17009KT 30/19 A3003 RMK A01 T02990190  RH  052%=      5-min Rain = 0
KSE2 201701Z 15013G18KT 30/19 A3003 RMK A01 T02990190  RH  052%=      5-min Rain = 0
KSE2 201702Z 16013KT 30/19 A3003 RMK A01 T02990187  RH  051%=      5-min Rain = 0
KSE2 201703Z 16012KT 30/19 A3003 RMK A01 T03010187  RH  051%=      5-min Rain = 0
KSE2 201704Z 17013KT 30/19 A3003 RMK A01 T03010189  RH  051%=      5-min Rain = 0
KSE2 201705Z 19009KT 30/19 A3003 RMK A01 T03010190  RH  051%=      5-min Rain = 0
KSE2 201706Z 17011G18KT 30/19 A3003 RMK A01 T03030192  RH  051%=      5-min Rain = 0
KSE2 201707Z 16012KT 30/19 A3003 RMK A01 T03040190  RH  051%=      5-min Rain = 0
KSE2 201708Z 16009KT 30/19 A3003 RMK A01 T03040190  RH  050%=      5-min Rain = 0
KSE2 201709Z 15011KT 31/19 A3003 RMK A01 T03050189  RH  050%=      5-min Rain = 0
KSE2 201710Z 16009KT 31/19 A3003 RMK A01 T03060190  RH  050%=      5-min Rain = 0
KSE2 201711Z 14012KT 31/19 A3003 RMK A01 T03070188  RH  049%=      5-min Rain = 0
KSE2 201712Z 15011KT 31/19 A3003 RMK A01 T03060188  RH  049%=      5-min Rain = 0
KSE2 201713Z 16011G17KT 31/19 A3003 RMK A01 T03070189  RH  049%=      5-min Rain = 0
KSE2 201714Z 16011KT 31/19 A3003 RMK A01 T03070189  RH  049%=      5-min Rain = 0
KSE2 201715Z 15011KT 31/19 A3003 RMK A01 T03060188  RH  049%=      5-min Rain = 0
KSE2 201716Z 14011KT 31/19 A3003 RMK A01 T03070186  RH  049%=      5-min Rain = 0
KSE2 201717Z 16010KT 31/19 A3003 RMK A01 T03080188  RH  049%=      5-min Rain = 0
KSE2 201718Z 16013KT 31/19 A3003 RMK A01 T03080185  RH  048%=      5-min Rain = 0
KSE2 201719Z 17013KT 31/19 A3003 RMK A01 T03070185  RH  048%=      5-min Rain = 0
KSE2 201720Z 17014KT 31/18 A3003 RMK A01 T03070182  RH  047%=      5-min Rain = 0
KSE2 201721Z 15009KT 31/18 A3003 RMK A01 T03060183  RH  048%=      5-min Rain = 0
KSE2 201722Z 15010KT 31/19 A3003 RMK A01 T03070186  RH  049%=      5-min Rain = 0
KSE2 201723Z 16014KT 31/19 A3003 RMK A01 T03090188  RH  048%=      5-min Rain = 0
KSE2 201724Z 17009KT 31/19 A3003 RMK A01 T03070187  RH  049%=      5-min Rain = 0
KSE2 201725Z 16015G23KT 31/19 A3003 RMK A01 T03060185  RH  048%=      5-min Rain = 0
KSE2 201726Z 15015KT 31/18 A3003 RMK A01 T03060182  RH  047%=      5-min Rain = 0
KSE2 201727Z 16014G19KT 31/18 A3003 RMK A01 T03070182  RH  047%=      5-min Rain = 0
KSE2 201728Z 15015KT 31/18 A3003 RMK A01 T03070182  RH  047%=      5-min Rain = 0
KSE2 201729Z 15009G16KT 31/19 A3003 RMK A01 T03070185  RH  048%=      5-min Rain = 0
KSE2 201730Z 17011KT 31/19 A3003 RMK A01 T03100187  RH  048%=      5-min Rain = 0
KSE2 201731Z 16010KT 31/19 A3003 RMK A01 T03100186  RH  048%=      5-min Rain = 0
KSE2 201732Z 18014G19KT 31/18 A3003 RMK A01 T03120183  RH  046%=      5-min Rain = 0
KSE2 201733Z 18015G21KT 31/18 A3003 RMK A01 T03110181  RH  046%=      5-min Rain = 0
KSE2 201734Z 18008KT 31/18 A3003 RMK A01 T03100182  RH  046%=      5-min Rain = 0
KSE2 201735Z 19010G15KT 31/18 A3003 RMK A01 T03130184  RH  046%=      5-min Rain = 0
KSE2 201736Z 19009G14KT 32/18 A3003 RMK A01 T03160182  RH  045%=      5-min Rain = 0
KSE2 201737Z 20013KT 32/18 A3003 RMK A01 T03160182  RH  045%=      5-min Rain = 0
KSE2 201738Z 19012KT 31/18 A3003 RMK A01 T03130180  RH  045%=      5-min Rain = 0
KSE2 201739Z 17010KT 31/18 A3003 RMK A01 T03120183  RH  046%=      5-min Rain = 0
KSE2 201740Z 16014KT 31/18 A3003 RMK A01 T03130182  RH  046%=      5-min Rain = 0
KSE2 201741Z 17012KT 31/18 A3003 RMK A01 T03140180  RH  045%=      5-min Rain = 0
KSE2 201742Z 17011KT 31/18 A3003 RMK A01 T03130182  RH  046%=      5-min Rain = 0
KSE2 201743Z 17014KT 31/18 A3002 RMK A01 T03130183  RH  046%=      5-min Rain = 0
KSE2 201744Z 17012KT 31/18 A3002 RMK A01 T03140182  RH  046%=      5-min Rain = 0
KSE2 201745Z 19009KT 31/18 A3002 RMK A01 T03140183  RH  046%=      5-min Rain = 0
KSE2 201746Z 19015KT 32/18 A3002 RMK A01 T03160180  RH  045%=      5-min Rain = 0
KSE2 201747Z 18011KT 32/18 A3002 RMK A01 T03160180  RH  044%=      5-min Rain = 0
KSE2 201748Z 18006KT 32/18 A3002 RMK A01 T03150182  RH  045%=      5-min Rain = 0
KSE2 201749Z 18011KT 32/18 A3002 RMK A01 T03180184  RH  045%=      5-min Rain = 0
KSE2 201750Z 18012KT 32/18 A3002 RMK A01 T03190183  RH  044%=      5-min Rain = 0
KSE2 201751Z 18010KT 32/18 A3002 RMK A01 T03180181  RH  044%=      5-min Rain = 0
KSE2 201752Z 16013G21KT 32/18 A3002 RMK A01 T03180182  RH  044%=      5-min Rain = 0
KSE2 201753Z 17012G17KT 32/18 A3002 RMK A01 T03190181  RH  044%=      5-min Rain = 0
KSE2 201754Z 17010KT 32/18 A3002 RMK A01 T03220184  RH  044%=      5-min Rain = 0
KSE2 201755Z 17009KT 32/18 A3002 RMK A01 T03220182  RH  043%=      5-min Rain = 0
KSE2 201756Z 15011G17KT 32/18 A3002 RMK A01 T03210181  RH  043%=      5-min Rain = 0
KSE2 201757Z 15015G20KT 32/18 A3002 RMK A01 T03230175  RH  041%=      5-min Rain = 0
KSE2 201758Z 15010KT 32/18 A3002 RMK A01 T03220178  RH  042%=      5-min Rain = 0
KSE2 201759Z 16013G18KT 33/18 A3002 RMK A01 T03250178  RH  042%=      5-min Rain = 0
KSE2 201800Z 19014KT 32/18 A3002 RMK A01 T03230177  RH  042%=      5-min Rain = 0
KSE2 201801Z 19013KT 32/18 A3002 RMK A01 T03200175  RH  042%=      5-min Rain = 0
KSE2 201802Z 20013KT 32/18 A3002 RMK A01 T03190175  RH  042%=      5-min Rain = 0
KSE2 201803Z 18009KT 32/18 A3002 RMK A01 T03190176  RH  043%=      5-min Rain = 0
KSE2 201804Z 18008KT 32/18 A3002 RMK A01 T03200179  RH  043%=      5-min Rain = 0
KSE2 201805Z 16010G16KT 32/18 A3002 RMK A01 T03220180  RH  043%=      5-min Rain = 0
KSE2 201806Z 15017KT 32/17 A3002 RMK A01 T03230173  RH  041%=      5-min Rain = 0
KSE2 201807Z 16012G17KT 32/17 A3002 RMK A01 T03210172  RH  041%=      5-min Rain = 0
KSE2 201808Z 15016G21KT 32/17 A3002 RMK A01 T03230174  RH  041%=      5-min Rain = 0
KSE2 201809Z 16014KT 32/17 A3002 RMK A01 T03220169  RH  040%=      5-min Rain = 0
KSE2 201810Z 16009KT 32/17 A3002 RMK A01 T03190169  RH  041%=      5-min Rain = 0
KSE2 201811Z 15013G19KT 32/17 A3002 RMK A01 T03190170  RH  041%=      5-min Rain = 0
KSE2 201812Z 16012G17KT 32/17 A3002 RMK A01 T03210169  RH  040%=      5-min Rain = 0
KSE2 201813Z 15017G22KT 32/16 A3002 RMK A01 T03230164  RH  039%=      5-min Rain = 0
KSE2 201814Z 15013G19KT 32/16 A3002 RMK A01 T03230159  RH  037%=      5-min Rain = 0
KSE2 201815Z 15013KT 32/16 A3002 RMK A01 T03230162  RH  038%=      5-min Rain = 0
KSE2 201816Z 15013G18KT 33/17 A3002 RMK A01 T03260165  RH  038%=      5-min Rain = 0
KSE2 201817Z 16013G18KT 33/17 A3002 RMK A01 T03260165  RH  038%=      5-min Rain = 0
KSE2 201818Z 16015KT 33/17 A3001 RMK A01 T03250165  RH  038%=      5-min Rain = 0
KSE2 201819Z 16014G19KT 33/16 A3001 RMK A01 T03250161  RH  037%=      5-min Rain = 0
KSE2 201820Z 17015KT 33/16 A3001 RMK A01 T03260162  RH  037%=      5-min Rain = 0
KSE2 201821Z 17014KT 32/16 A3002 RMK A01 T03240162  RH  038%=      5-min Rain = 0
KSE2 201822Z 17013G18KT 32/16 A3001 RMK A01 T03230161  RH  038%=      5-min Rain = 0
KSE2 201823Z 17010G16KT 32/16 A3001 RMK A01 T03230160  RH  038%=      5-min Rain = 0
KSE2 201824Z 16012G21KT 33/16 A3001 RMK A01 T03260159  RH  037%=      5-min Rain = 0
KSE2 201825Z 15016G21KT 33/16 A3001 RMK A01 T03260158  RH  036%=      5-min Rain = 0
KSE2 201826Z 17013G19KT 33/16 A3001 RMK A01 T03260157  RH  036%=      5-min Rain = 0
KSE2 201827Z 19014KT 33/16 A3001 RMK A01 T03250160  RH  037%=      5-min Rain = 0
KSE2 201828Z 19010KT 32/16 A3001 RMK A01 T03240162  RH  038%=      5-min Rain = 0
KSE2 201829Z 16014G19KT 33/17 A3001 RMK A01 T03260166  RH  038%=      5-min Rain = 0
KSE2 201830Z 18013KT 33/17 A3001 RMK A01 T03280167  RH  038%=      5-min Rain = 0
KSE2 201831Z 18012KT 33/17 A3001 RMK A01 T03270166  RH  038%=      5-min Rain = 0
KSE2 201832Z 19012KT 33/17 A3001 RMK A01 T03250166  RH  039%=      5-min Rain = 0
KSE2 201833Z 20009KT 32/17 A3001 RMK A01 T03230165  RH  039%=      5-min Rain = 0
KSE2 201834Z 17009G18KT 32/17 A3001 RMK A01 T03240165  RH  039%=      5-min Rain = 0
KSE2 201835Z 16015G21KT 33/16 A3001 RMK A01 T03260159  RH  037%=      5-min Rain = 0
KSE2 201836Z 15015KT 33/16 A3001 RMK A01 T03270161  RH  037%=      5-min Rain = 0
KSE2 201837Z 15012KT 33/17 A3001 RMK A01 T03260166  RH  038%=      5-min Rain = 0
KSE2 201838Z 18009KT 33/16 A3001 RMK A01 T03260163  RH  038%=      5-min Rain = 0
KSE2 201839Z 18011G17KT 33/16 A3001 RMK A01 T03280161  RH  037%=      5-min Rain = 0
KSE2 201840Z 18011KT 33/16 A3001 RMK A01 T03310156  RH  035%=      5-min Rain = 0
KSE2 201841Z 20013G18KT 33/16 A3001 RMK A01 T03310157  RH  035%=      5-min Rain = 0
KSE2 201842Z 20015KT 33/16 A3001 RMK A01 T03310155  RH  035%=      5-min Rain = 0
KSE2 201843Z 17011G16KT 33/16 A3001 RMK A01 T03290155  RH  035%=      5-min Rain = 0
KSE2 201844Z 17014G19KT 33/15 A3001 RMK A01 T03320152  RH  034%=      5-min Rain = 0
KSE2 201845Z 17012KT 33/15 A3001 RMK A01 T03340149  RH  033%=      5-min Rain = 0
KSE2 201846Z 17012G17KT 33/15 A3001 RMK A01 T03330151  RH  034%=      5-min Rain = 0
KSE2 201847Z 18010G16KT 34/16 A3001 RMK A01 T03350158  RH  035%=      5-min Rain = 0
KSE2 201848Z 17013G18KT 34/16 A3001 RMK A01 T03370158  RH  034%=      5-min Rain = 0
KSE2 201849Z 19013G19KT 34/16 A3001 RMK A01 T03350158  RH  035%=      5-min Rain = 0
KSE2 201850Z 17011KT 33/16 A3001 RMK A01 T03330158  RH  035%=      5-min Rain = 0
KSE2 201851Z 19013KT 33/15 A3001 RMK A01 T03320154  RH  034%=      5-min Rain = 0
KSE2 201852Z 18011KT 33/15 A3001 RMK A01 T03290154  RH  035%=      5-min Rain = 0
KSE2 201853Z 19015KT 33/16 A3001 RMK A01 T03320155  RH  035%=      5-min Rain = 0
KSE2 201854Z 19011G17KT 33/15 A3001 RMK A01 T03340152  RH  033%=      5-min Rain = 0
KSE2 201855Z 17010G15KT 34/16 A3001 RMK A01 T03360155  RH  034%=      5-min Rain = 0
KSE2 201856Z 18012G17KT 34/16 A3001 RMK A01 T03370155  RH  034%=      5-min Rain = 0
KSE2 201857Z 18011G16KT 34/16 A3001 RMK A01 T03350155  RH  034%=      5-min Rain = 0
KSE2 201858Z 18012KT 34/15 A3001 RMK A01 T03350154  RH  034%=      5-min Rain = 0
KSE2 201859Z 18010KT 33/15 A3001 RMK A01 T03320153  RH  034%=      5-min Rain = 0
KSE2 201900Z 18009KT 33/15 A3001 RMK A01 T03310154  RH  035%=      5-min Rain = 0
KSE2 201901Z 17011KT 33/16 A3001 RMK A01 T03310159  RH  036%=      5-min Rain = 0
KSE2 201902Z 18012KT 33/17 A3001 RMK A01 T03330167  RH  037%=      5-min Rain = 0
KSE2 201903Z 17010KT 33/17 A30 RMK A01 T03340169  RH  037%=      5-min Rain = 0
KSE2 201904Z 18010KT 33/17 A30 RMK A01 T03330167  RH  037%=      5-min Rain = 0
KSE2 201905Z 20007KT 34/17 A30 RMK A01 T03350171  RH  038%=      5-min Rain = 0
KSE2 201906Z 20007G12KT 34/17 A30 RMK A01 T03380172  RH  037%=      5-min Rain = 0
KSE2 201907Z 17010KT 34/17 A30 RMK A01 T03420173  RH  037%=      5-min Rain = 0
KSE2 201908Z 17008KT 34/17 A30 RMK A01 T03420170  RH  036%=      5-min Rain = 0
KSE2 201909Z 17012KT 34/17 A30 RMK A01 T03390172  RH  037%=      5-min Rain = 0
KSE2 201910Z 16013KT 34/18 A30 RMK A01 T03370176  RH  038%=      5-min Rain = 0
KSE2 201911Z 16014KT 34/17 A30 RMK A01 T03360174  RH  038%=      5-min Rain = 0
KSE2 201912Z 17013KT 33/17 A30 RMK A01 T03330173  RH  038%=      5-min Rain = 0
KSE2 201913Z 18010KT 33/17 A30 RMK A01 T03320174  RH  039%=      5-min Rain = 0
KSE2 201914Z 17008KT 33/17 A30 RMK A01 T03310173  RH  039%=      5-min Rain = 0
KSE2 201915Z 18010KT 33/18 A30 RMK A01 T03320176  RH  039%=      5-min Rain = 0
KSE2 201916Z 18010G15KT 34/17 A30 RMK A01 T03350171  RH  038%=      5-min Rain = 0
KSE2 201917Z 19010KT 34/16 A30 RMK A01 T03390164  RH  035%=      5-min Rain = 0
KSE2 201918Z 19012G19KT 34/16 A30 RMK A01 T03420164  RH  034%=      5-min Rain = 0
KSE2 201919Z 19013G19KT 34/16 A30 RMK A01 T03420161  RH  034%=      5-min Rain = 0
KSE2 201920Z 20009KT 34/16 A30 RMK A01 T03350158  RH  035%=      5-min Rain = 0
KSE2 201921Z 19014G19KT 33/16 A30 RMK A01 T03330159  RH  035%=      5-min Rain = 0
KSE2 201922Z 17011KT 34/16 A30 RMK A01 T03350158  RH  035%=      5-min Rain = 0
KSE2 201923Z 18014G21KT 34/15 A30 RMK A01 T03360153  RH  033%=      5-min Rain = 0
KSE2 201924Z 18014G20KT 34/15 A30 RMK A01 T03370149  RH  032%=      5-min Rain = 0
KSE2 201925Z 19013KT 34/15 A30 RMK A01 T03350152  RH  033%=      5-min Rain = 0
KSE2 201926Z 19011G17KT 34/16 A30 RMK A01 T03370156  RH  034%=      5-min Rain = 0
KSE2 201927Z 16012G17KT 34/16 A30 RMK A01 T03390160  RH  034%=      5-min Rain = 0
KSE2 201928Z 18010KT 34/16 A30 RMK A01 T03400162  RH  034%=      5-min Rain = 0
KSE2 201929Z 19013KT 34/16 A30 RMK A01 T03400162  RH  035%=      5-min Rain = 0
KSE2 201930Z 17014KT 34/16 A2999 RMK A01 T03400162  RH  035%=      5-min Rain = 0
KSE2 201931Z 17008KT 34/16 A30 RMK A01 T03380161  RH  035%=      5-min Rain = 0
KSE2 201932Z 16009KT 34/16 A2999 RMK A01 T03380163  RH  035%=      5-min Rain = 0
KSE2 201933Z 15015G23KT 34/16 A2999 RMK A01 T03380164  RH  035%=      5-min Rain = 0
KSE2 201934Z 17013G19KT 34/16 A2999 RMK A01 T03390164  RH  035%=      5-min Rain = 0
KSE2 201935Z 18015G20KT 34/16 A2999 RMK A01 T03400160  RH  034%=      5-min Rain = 0
KSE2 201936Z 18016KT 34/16 A2999 RMK A01 T03400158  RH  034%=      5-min Rain = 0
KSE2 201937Z 19013KT 34/16 A2999 RMK A01 T03380157  RH  034%=      5-min Rain = 0
KSE2 201938Z 19014G19KT 34/15 A2999 RMK A01 T03370149  RH  032%=      5-min Rain = 0
KSE2 201939Z 18010KT 34/15 A2999 RMK A01 T03370151  RH  033%=      5-min Rain = 0
KSE2 201940Z 18009KT 34/16 A2999 RMK A01 T03400155  RH  033%=      5-min Rain = 0
KSE2 201941Z 18016KT 34/16 A2999 RMK A01 T03410158  RH  033%=      5-min Rain = 0
KSE2 201942Z 18015KT 34/15 A2999 RMK A01 T03380151  RH  033%=      5-min Rain = 0
KSE2 201943Z 18014KT 34/15 A2999 RMK A01 T03360152  RH  033%=      5-min Rain = 0
KSE2 201944Z 19014G20KT 34/16 A2999 RMK A01 T03360155  RH  034%=      5-min Rain = 0
KSE2 201945Z 18014KT 34/16 A2999 RMK A01 T03360155  RH  034%=      5-min Rain = 0
KSE2 201946Z 21013KT 34/16 A2999 RMK A01 T03360155  RH  034%=      5-min Rain = 0
KSE2 201947Z 20013G19KT 34/16 A2999 RMK A01 T03360158  RH  034%=      5-min Rain = 0
KSE2 201948Z 17012G17KT 34/16 A2999 RMK A01 T03360161  RH  035%=      5-min Rain = 0
KSE2 201949Z 18013G18KT 34/16 A2999 RMK A01 T03390158  RH  034%=      5-min Rain = 0
KSE2 201950Z 18014G19KT 34/16 A2999 RMK A01 T03390157  RH  034%=      5-min Rain = 0
KSE2 201951Z 18012G18KT 34/16 A2999 RMK A01 T03380162  RH  035%=      5-min Rain = 0
KSE2 201952Z 18013KT 34/17 A2999 RMK A01 T03370165  RH  036%=      5-min Rain = 0
KSE2 201953Z 18011G16KT 34/16 A2999 RMK A01 T03390164  RH  035%=      5-min Rain = 0
KSE2 201954Z 19011G16KT 34/16 A2998 RMK A01 T03400164  RH  035%=      5-min Rain = 0
KSE2 201955Z 19014G19KT 34/16 A2998 RMK A01 T03410157  RH  033%=      5-min Rain = 0
KSE2 201956Z 18013KT 34/16 A2998 RMK A01 T03410155  RH  033%=      5-min Rain = 0
KSE2 201957Z 17014G20KT 34/16 A2998 RMK A01 T03430158  RH  033%=      5-min Rain = 0
KSE2 201958Z 19014G19KT 34/16 A2999 RMK A01 T03430161  RH  034%=      5-min Rain = 0
KSE2 201959Z 18016G21KT 34/16 A2999 RMK A01 T03400159  RH  034%=      5-min Rain = 0
KSE2 202000Z 17013KT 34/16 A2998 RMK A01 T03370160  RH  035%=      5-min Rain = 0
KSE2 202001Z 17011KT 34/16 A2999 RMK A01 T03370157  RH  034%=      5-min Rain = 0
KSE2 202002Z 18008KT 34/16 A2998 RMK A01 T03380162  RH  035%=      5-min Rain = 0
KSE2 202003Z 17012KT 34/16 A2998 RMK A01 T03430157  RH  033%=      5-min Rain = 0
KSE2 202004Z 18011KT 34/16 A2998 RMK A01 T03420155  RH  033%=      5-min Rain = 0
KSE2 202005Z 18014KT 34/16 A2998 RMK A01 T03430158  RH  033%=      5-min Rain = 0
KSE2 202006Z 18011KT 34/16 A2998 RMK A01 T03420158  RH  033%=      5-min Rain = 0
KSE2 202007Z 19010G16KT 34/16 A2998 RMK A01 T03410158  RH  034%=      5-min Rain = 0
KSE2 202008Z 20012G18KT 34/16 A2998 RMK A01 T03440160  RH  033%=      5-min Rain = 0
KSE2 202009Z 19015KT 35/16 A2998 RMK A01 T03450156  RH  032%=      5-min Rain = 0
KSE2 202010Z 18015KT 34/15 A2998 RMK A01 T03410154  RH  033%=      5-min Rain = 0
KSE2 202011Z 18013KT 34/16 A2998 RMK A01 T03380156  RH  034%=      5-min Rain = 0
KSE2 202012Z 19016G21KT 34/16 A2998 RMK A01 T03390157  RH  034%=      5-min Rain = 0
KSE2 202013Z 18015KT 34/15 A2998 RMK A01 T03400152  RH  033%=      5-min Rain = 0
KSE2 202014Z 17012G17KT 34/15 A2998 RMK A01 T03400153  RH  033%=      5-min Rain = 0
KSE2 202015Z 18012G17KT 34/15 A2998 RMK A01 T03400154  RH  033%=      5-min Rain = 0
KSE2 202016Z 18010KT 34/16 A2998 RMK A01 T03400156  RH  033%=      5-min Rain = 0
KSE2 202017Z 19012KT 34/16 A2998 RMK A01 T03410161  RH  034%=      5-min Rain = 0
KSE2 202018Z 18010G15KT 34/16 A2998 RMK A01 T03430163  RH  034%=      5-min Rain = 0
KSE2 202019Z 19015KT 35/16 A2998 RMK A01 T03450161  RH  034%=      5-min Rain = 0
KSE2 202020Z 18015KT 34/16 A2998 RMK A01 T03430158  RH  033%=      5-min Rain = 0
KSE2 202021Z 18011G17KT 34/16 A2998 RMK A01 T03410159  RH  034%=      5-min Rain = 0
KSE2 202022Z 20014KT 34/16 A2998 RMK A01 T03430160  RH  034%=      5-min Rain = 0
KSE2 202023Z 19013KT 34/16 A2998 RMK A01 T03410160  RH  034%=      5-min Rain = 0
KSE2 202024Z 18011KT 34/16 A2998 RMK A01 T03380162  RH  035%=      5-min Rain = 0
KSE2 202025Z 18010G15KT 34/17 A2998 RMK A01 T03400166  RH  036%=      5-min Rain = 0
KSE2 202026Z 17013KT 34/17 A2998 RMK A01 T03440170  RH  036%=      5-min Rain = 0
KSE2 202027Z 17014KT 35/17 A2998 RMK A01 T03470172  RH  035%=      5-min Rain = 0
KSE2 202028Z 18013KT 34/17 A2998 RMK A01 T03440169  RH  035%=      5-min Rain = 0
KSE2 202029Z 19011G16KT 34/17 A2998 RMK A01 T03410170  RH  036%=      5-min Rain = 0
KSE2 202030Z 19009KT 34/17 A2998 RMK A01 T03400171  RH  037%=      5-min Rain = 0
KSE2 202031Z 18010KT 34/17 A2997 RMK A01 T03420173  RH  037%=      5-min Rain = 0
KSE2 202032Z 16015KT 35/17 A2997 RMK A01 T03450169  RH  035%=      5-min Rain = 0
KSE2 202033Z 15015KT 35/16 A2997 RMK A01 T03470157  RH  032%=      5-min Rain = 0
KSE2 202034Z 15013G18KT 34/15 A2997 RMK A01 T03440152  RH  032%=      5-min Rain = 0
KSE2 202035Z 18014KT 34/16 A2997 RMK A01 T03420156  RH  033%=      5-min Rain = 0
KSE2 202036Z 16012KT 34/16 A2997 RMK A01 T03420160  RH  034%=      5-min Rain = 0
KSE2 202037Z 17012G17KT 34/16 A2998 RMK A01 T03430161  RH  034%=      5-min Rain = 0
KSE2 202038Z 18011G16KT 34/16 A2997 RMK A01 T03430155  RH  033%=      5-min Rain = 0
KSE2 202039Z 19011KT 34/15 A2997 RMK A01 T03420154  RH  032%=      5-min Rain = 0
KSE2 202040Z 17008KT 34/16 A2997 RMK A01 T03420156  RH  033%=      5-min Rain = 0
KSE2 202041Z 17010G16KT 34/16 A2997 RMK A01 T03440161  RH  034%=      5-min Rain = 0
KSE2 202042Z 16015KT 35/16 A2997 RMK A01 T03460160  RH  033%=      5-min Rain = 0
KSE2 202043Z 16015KT 35/16 A2997 RMK A01 T03450158  RH  033%=      5-min Rain = 0
KSE2 202044Z 18013KT 34/16 A2997 RMK A01 T03420158  RH  033%=      5-min Rain = 0
KSE2 202045Z 18011G16KT 34/16 A2997 RMK A01 T03420159  RH  033%=      5-min Rain = 0
KSE2 202046Z 18013KT 35/16 A2997 RMK A01 T03460156  RH  032%=      5-min Rain = 0
KSE2 202047Z 18011KT 35/16 A2997 RMK A01 T03470155  RH  032%=      5-min Rain = 0
KSE2 202048Z 19013G18KT 35/16 A2997 RMK A01 T03450157  RH  032%=      5-min Rain = 0
KSE2 202049Z 19011KT 34/16 A2997 RMK A01 T03440156  RH  033%=      5-min Rain = 0
KSE2 202050Z 20010KT 34/16 A2997 RMK A01 T03440157  RH  033%=      5-min Rain = 0
KSE2 202051Z 19011KT 35/16 A2997 RMK A01 T03460160  RH  033%=      5-min Rain = 0
KSE2 202052Z 19011G17KT 35/16 A2997 RMK A01 T03470163  RH  033%=      5-min Rain = 0
KSE2 202053Z 18012KT 35/16 A2997 RMK A01 T03480162  RH  033%=      5-min Rain = 0
KSE2 202054Z 19009KT 35/16 A2997 RMK A01 T03460164  RH  034%=      5-min Rain = 0
KSE2 202055Z 19009G14KT 35/17 A2996 RMK A01 T03460166  RH  034%=      5-min Rain = 0
KSE2 202056Z 17009KT 35/17 A2997 RMK A01 T03470170  RH  035%=      5-min Rain = 0
KSE2 202057Z 15011KT 35/17 A2996 RMK A01 T03490171  RH  035%=      5-min Rain = 0
KSE2 202058Z 16011G17KT 35/17 A2997 RMK A01 T03480172  RH  035%=      5-min Rain = 0
KSE2 202059Z 16009KT 35/17 A2996 RMK A01 T03470170  RH  035%=      5-min Rain = 0
KSE2 202100Z 17010KT 35/17 A2996 RMK A01 T03480168  RH  034%=      5-min Rain = 0
KSE2 202101Z 15009KT 35/17 A2996 RMK A01 T03490172  RH  035%=      5-min Rain = 0
KSE2 202102Z 15010KT 35/18 A2996 RMK A01 T03500176  RH  036%=      5-min Rain = 0
KSE2 202103Z 15009G15KT 35/18 A2996 RMK A01 T03470177  RH  036%=      5-min Rain = 0
KSE2 202104Z 16016G23KT 35/18 A2996 RMK A01 T03480177  RH  036%=      5-min Rain = 0
KSE2 202105Z 17016G21KT 35/17 A2996 RMK A01 T03450173  RH  036%=      5-min Rain = 0
KSE2 202106Z 17014KT 34/17 A2996 RMK A01 T03430173  RH  037%=      5-min Rain = 0
KSE2 202107Z 18010G15KT 34/17 A2996 RMK A01 T03430174  RH  037%=      5-min Rain = 0
KSE2 202108Z 16012KT 34/18 A2996 RMK A01 T03440178  RH  037%=      5-min Rain = 0
KSE2 202109Z 17015KT 34/18 A2996 RMK A01 T03430175  RH  037%=      5-min Rain = 0
KSE2 202110Z 16012KT 34/18 A2996 RMK A01 T03400175  RH  038%=      5-min Rain = 0
KSE2 202111Z 16010KT 34/17 A2996 RMK A01 T03400174  RH  037%=      5-min Rain = 0
KSE2 202112Z 17014KT 34/18 A2996 RMK A01 T03410175  RH  037%=      5-min Rain = 0
KSE2 202113Z 17013G18KT 34/17 A2996 RMK A01 T03410173  RH  037%=      5-min Rain = 0
KSE2 202114Z 16012G17KT 34/17 A2996 RMK A01 T03410170  RH  036%=      5-min Rain = 0
KSE2 202115Z 16010KT 34/17 A2996 RMK A01 T03420172  RH  036%=      5-min Rain = 0
KSE2 202116Z 18011G17KT 35/17 A2996 RMK A01 T03450174  RH  036%=      5-min Rain = 0
KSE2 202117Z 18013G20KT 35/17 A2996 RMK A01 T03470173  RH  036%=      5-min Rain = 0
KSE2 202118Z 16013KT 35/17 A2996 RMK A01 T03480171  RH  035%=      5-min Rain = 0
KSE2 202119Z 16009G16KT 35/17 A2996 RMK A01 T03460167  RH  035%=      5-min Rain = 0
KSE2 202120Z 16009KT 34/17 A2996 RMK A01 T03440169  RH  035%=      5-min Rain = 0
KSE2 202121Z 15014KT 34/17 A2996 RMK A01 T03440171  RH  036%=      5-min Rain = 0
KSE2 202122Z 15014G20KT 34/17 A2996 RMK A01 T03440167  RH  035%=      5-min Rain = 0
KSE2 202123Z 14012KT 34/17 A2996 RMK A01 T03440169  RH  035%=      5-min Rain = 0
KSE2 202124Z 14010KT 34/17 A2995 RMK A01 T03440169  RH  035%=      5-min Rain = 0
KSE2 202125Z 16011KT 35/17 A2996 RMK A01 T03480169  RH  035%=      5-min Rain = 0
KSE2 202126Z 17011KT 35/17 A2995 RMK A01 T03480166  RH  034%=      5-min Rain = 0
KSE2 202127Z 18011KT 35/17 A2995 RMK A01 T03460166  RH  034%=      5-min Rain = 0
KSE2 202128Z 17012KT 35/16 A2995 RMK A01 T03460159  RH  033%=      5-min Rain = 0
KSE2 202129Z 17013KT 35/16 A2995 RMK A01 T03450157  RH  032%=      5-min Rain = 0
KSE2 202130Z 17013G18KT 35/16 A2995 RMK A01 T03450159  RH  033%=      5-min Rain = 0
KSE2 202131Z 17013KT 35/16 A2995 RMK A01 T03450160  RH  033%=      5-min Rain = 0
KSE2 202132Z 18011KT 35/16 A2995 RMK A01 T03450162  RH  034%=      5-min Rain = 0
KSE2 202133Z 15012KT 35/17 A2995 RMK A01 T03460165  RH  034%=      5-min Rain = 0
KSE2 202134Z 16012G18KT 35/17 A2995 RMK A01 T03460165  RH  034%=      5-min Rain = 0
KSE2 202135Z 15010G15KT 34/17 A2995 RMK A01 T03430166  RH  035%=      5-min Rain = 0
KSE2 202136Z 15007KT 35/17 A2995 RMK A01 T03450169  RH  035%=      5-min Rain = 0
KSE2 202137Z 13011KT 35/17 A2995 RMK A01 T03470171  RH  035%=      5-min Rain = 0
KSE2 202138Z 14015KT 35/17 A2995 RMK A01 T03450170  RH  035%=      5-min Rain = 0
KSE2 202139Z 15014KT 34/17 A2995 RMK A01 T03420169  RH  036%=      5-min Rain = 0
KSE2 202140Z 15014KT 34/17 A2995 RMK A01 T03410169  RH  036%=      5-min Rain = 0
KSE2 202141Z 16012KT 34/17 A2995 RMK A01 T03410168  RH  036%=      5-min Rain = 0
KSE2 202142Z 15011KT 34/17 A2995 RMK A01 T03420169  RH  036%=      5-min Rain = 0
KSE2 202143Z 15011KT 34/17 A2995 RMK A01 T03440169  RH  035%=      5-min Rain = 0
KSE2 202144Z 15009KT 34/17 A2995 RMK A01 T03440169  RH  035%=      5-min Rain = 0
KSE2 202145Z 17006KT 35/17 A2995 RMK A01 T03470171  RH  035%=      5-min Rain = 0
KSE2 202146Z 16008KT 35/17 A2995 RMK A01 T03500170  RH  034%=      5-min Rain = 0
KSE2 202147Z 15010KT 35/17 A2995 RMK A01 T03510166  RH  033%=      5-min Rain = 0
KSE2 202148Z 16012G18KT 35/17 A2995 RMK A01 T03490167  RH  034%=      5-min Rain = 0
KSE2 202149Z 15012G17KT 35/17 A2995 RMK A01 T03490169  RH  034%=      5-min Rain = 0
KSE2 202150Z 14013G19KT 35/17 A2995 RMK A01 T03490167  RH  034%=      5-min Rain = 0
KSE2 202151Z 14012KT 35/17 A2995 RMK A01 T03480166  RH  034%=      5-min Rain = 0
KSE2 202152Z 13012G18KT 35/17 A2995 RMK A01 T03460166  RH  034%=      5-min Rain = 0
KSE2 202153Z 13015KT 35/16 A2995 RMK A01 T03450164  RH  034%=      5-min Rain = 0
KSE2 202154Z 12014KT 34/16 A2995 RMK A01 T03420164  RH  034%=      5-min Rain = 0
KSE2 202155Z 13014KT 34/16 A2995 RMK A01 T03430164  RH  034%=      5-min Rain = 0
KSE2 202156Z 16012G20KT 34/17 A2995 RMK A01 T03440166  RH  035%=      5-min Rain = 0
KSE2 202157Z 16015G20KT 35/16 A2995 RMK A01 T03450163  RH  034%=      5-min Rain = 0
KSE2 202158Z 16014G20KT 34/16 A2995 RMK A01 T03440163  RH  034%=      5-min Rain = 0
KSE2 202159Z 15013KT 34/16 A2995 RMK A01 T03440163  RH  034%=      5-min Rain = 0
KSE2 202200Z 16011KT 34/16 A2995 RMK A01 T03440163  RH  034%=      5-min Rain = 0
KSE2 202201Z 17012KT 35/17 A2995 RMK A01 T03450165  RH  034%=      5-min Rain = 0
KSE2 202202Z 16014KT 35/16 A2994 RMK A01 T03460164  RH  034%=      5-min Rain = 0
KSE2 202203Z 17009KT 35/17 A2994 RMK A01 T03460165  RH  034%=      5-min Rain = 0
KSE2 202204Z 15011G16KT 35/17 A2995 RMK A01 T03480168  RH  034%=      5-min Rain = 0
KSE2 202205Z 16011KT 35/16 A2995 RMK A01 T03500163  RH  033%=      5-min Rain = 0
KSE2 202206Z 15010G16KT 35/16 A2995 RMK A01 T03480164  RH  033%=      5-min Rain = 0
KSE2 202207Z 14015KT 35/16 A2994 RMK A01 T03460159  RH  033%=      5-min Rain = 0
KSE2 202208Z 16014KT 34/16 A2994 RMK A01 T03430159  RH  033%=      5-min Rain = 0
KSE2 202209Z 17010KT 34/16 A2994 RMK A01 T03430159  RH  033%=      5-min Rain = 0
KSE2 202210Z 15011KT 34/16 A2994 RMK A01 T03430160  RH  034%=      5-min Rain = 0
KSE2 202211Z 15012KT 34/16 A2994 RMK A01 T03440160  RH  033%=      5-min Rain = 0
KSE2 202212Z 14015KT 34/16 A2994 RMK A01 T03430159  RH  033%=      5-min Rain = 0
KSE2 202213Z 13012KT 34/16 A2994 RMK A01 T03430158  RH  033%=      5-min Rain = 0
KSE2 202214Z 14016KT 34/16 A2994 RMK A01 T03430159  RH  033%=      5-min Rain = 0
KSE2 202215Z 14014G20KT 34/16 A2994 RMK A01 T03430158  RH  033%=      5-min Rain = 0
KSE2 202216Z 15016G21KT 34/16 A2994 RMK A01 T03440157  RH  033%=      5-min Rain = 0
KSE2 202217Z 16013KT 34/16 A2994 RMK A01 T03430156  RH  033%=      5-min Rain = 0
KSE2 202218Z 16014KT 34/16 A2994 RMK A01 T03420156  RH  033%=      5-min Rain = 0
KSE2 202219Z 15011G16KT 34/16 A2994 RMK A01 T03430157  RH  033%=      5-min Rain = 0
KSE2 202220Z 15014KT 34/16 A2994 RMK A01 T03420158  RH  033%=      5-min Rain = 0
KSE2 202221Z 18012KT 34/16 A2994 RMK A01 T03430160  RH  034%=      5-min Rain = 0
KSE2 202222Z 17010KT 35/16 A2994 RMK A01 T03450160  RH  033%=      5-min Rain = 0
KSE2 202223Z 14010KT 35/16 A2994 RMK A01 T03460160  RH  033%=      5-min Rain = 0
KSE2 202224Z 15012KT 35/16 A2994 RMK A01 T03460161  RH  033%=      5-min Rain = 0
KSE2 202225Z 14012KT 35/16 A2994 RMK A01 T03460160  RH  033%=      5-min Rain = 0
KSE2 202226Z 15014KT 35/16 A2994 RMK A01 T03450161  RH  033%=      5-min Rain = 0
KSE2 202227Z 15014KT 35/16 A2994 RMK A01 T03450160  RH  033%=      5-min Rain = 0
KSE2 202228Z 15009G15KT 35/16 A2994 RMK A01 T03450157  RH  033%=      5-min Rain = 0
KSE2 202229Z 16012KT 34/16 A2994 RMK A01 T03440158  RH  033%=      5-min Rain = 0
KSE2 202230Z 15009G15KT 34/16 A2994 RMK A01 T03440157  RH  033%=      5-min Rain = 0
KSE2 202231Z 14011KT 34/16 A2994 RMK A01 T03440157  RH  033%=      5-min Rain = 0
KSE2 202232Z 16011KT 34/16 A2994 RMK A01 T03440155  RH  032%=      5-min Rain = 0
KSE2 202233Z 17013KT 34/16 A2994 RMK A01 T03430157  RH  033%=      5-min Rain = 0
KSE2 202234Z 17015KT 34/16 A2994 RMK A01 T03430155  RH  033%=      5-min Rain = 0
KSE2 202235Z 18012G17KT 34/16 A2994 RMK A01 T03420155  RH  033%=      5-min Rain = 0
KSE2 202236Z 18012G17KT 34/16 A2994 RMK A01 T03420156  RH  033%=      5-min Rain = 0
KSE2 202237Z 19012KT 34/16 A2994 RMK A01 T03420156  RH  033%=      5-min Rain = 0
KSE2 202238Z 18013KT 34/16 A2994 RMK A01 T03430157  RH  033%=      5-min Rain = 0
KSE2 202239Z 17015G21KT 34/16 A2994 RMK A01 T03440158  RH  033%=      5-min Rain = 0
KSE2 202240Z 17012KT 34/16 A2994 RMK A01 T03440158  RH  033%=      5-min Rain = 0
KSE2 202241Z 16011G17KT 34/16 A2994 RMK A01 T03430159  RH  033%=      5-min Rain = 0
KSE2 202242Z 15013KT 34/16 A2994 RMK A01 T03430159  RH  033%=      5-min Rain = 0
KSE2 202243Z 15014G19KT 34/16 A2993 RMK A01 T03420157  RH  033%=      5-min Rain = 0
KSE2 202244Z 15012G18KT 34/16 A2993 RMK A01 T03410157  RH  033%=      5-min Rain = 0
KSE2 202245Z 15011KT 34/16 A2993 RMK A01 T03420158  RH  033%=      5-min Rain = 0
KSE2 202246Z 14013KT 34/16 A2993 RMK A01 T03430157  RH  033%=      5-min Rain = 0
KSE2 202247Z 14014KT 34/16 A2993 RMK A01 T03440157  RH  033%=      5-min Rain = 0
KSE2 202248Z 14011G17KT 34/16 A2993 RMK A01 T03440158  RH  033%=      5-min Rain = 0
KSE2 202249Z 15014KT 34/16 A2993 RMK A01 T03440157  RH  033%=      5-min Rain = 0
KSE2 202250Z 15012KT 34/16 A2993 RMK A01 T03440156  RH  033%=      5-min Rain = 0
KSE2 202251Z 16009G14KT 34/16 A2993 RMK A01 T03440156  RH  033%=      5-min Rain = 0
KSE2 202252Z 17015G20KT 34/16 A2993 RMK A01 T03440156  RH  033%=      5-min Rain = 0
KSE2 202253Z 17014G19KT 34/15 A2993 RMK A01 T03430153  RH  032%=      5-min Rain = 0
KSE2 202254Z 17014KT 34/15 A2993 RMK A01 T03420153  RH  032%=      5-min Rain = 0
KSE2 202255Z 17010KT 34/15 A2993 RMK A01 T03410153  RH  032%=      5-min Rain = 0
KSE2 202256Z 17011KT 34/16 A2993 RMK A01 T03420155  RH  033%=      5-min Rain = 0
KSE2 202257Z 17012G17KT 34/15 A2993 RMK A01 T03420154  RH  033%=      5-min Rain = 0
KSE2 202258Z 18012KT 34/16 A2993 RMK A01 T03420155  RH  033%=      5-min Rain = 0
KSE2 202259Z 17014KT 34/15 A2993 RMK A01 T03420154  RH  032%=      5-min Rain = 0
KSE2 202300Z 15012KT 34/15 A2993 RMK A01 T03420153  RH  032%=      5-min Rain = 0
KSE2 202301Z 15014KT 34/15 A2993 RMK A01 T03410153  RH  033%=      5-min Rain = 0
KSE2 202302Z 16012KT 34/16 A2993 RMK A01 T03410155  RH  033%=      5-min Rain = 0
KSE2 202303Z 14012KT 34/16 A2993 RMK A01 T03420155  RH  033%=      5-min Rain = 0
KSE2 202304Z 15013KT 34/15 A2993 RMK A01 T03430153  RH  032%=      5-min Rain = 0
KSE2 202305Z 14011KT 34/15 A2993 RMK A01 T03420153  RH  032%=      5-min Rain = 0
KSE2 202306Z 16012KT 34/15 A2993 RMK A01 T03410152  RH  032%=      5-min Rain = 0
KSE2 202307Z 14012KT 34/15 A2993 RMK A01 T03400152  RH  032%=      5-min Rain = 0
KSE2 202308Z 13013G18KT 34/15 A2993 RMK A01 T03400152  RH  032%=      5-min Rain = 0
KSE2 202309Z 13013KT 34/15 A2993 RMK A01 T03400153  RH  033%=      5-min Rain = 0
KSE2 202310Z 13014KT 34/15 A2993 RMK A01 T03420151  RH  032%=      5-min Rain = 0
KSE2 202311Z 13011KT 34/15 A2993 RMK A01 T03410152  RH  032%=      5-min Rain = 0
KSE2 202312Z 15012KT 34/15 A2993 RMK A01 T03410150  RH  032%=      5-min Rain = 0
KSE2 202313Z 14010KT 34/15 A2993 RMK A01 T03400152  RH  032%=      5-min Rain = 0
KSE2 202314Z 14012KT 34/15 A2993 RMK A01 T03410153  RH  032%=      5-min Rain = 0
KSE2 202315Z 15008KT 34/15 A2993 RMK A01 T03420153  RH  032%=      5-min Rain = 0
KSE2 202316Z 16014G19KT 34/15 A2993 RMK A01 T03430154  RH  032%=      5-min Rain = 0
KSE2 202317Z 14014G19KT 34/15 A2993 RMK A01 T03420154  RH  032%=      5-min Rain = 0
KSE2 202318Z 15015KT 34/15 A2993 RMK A01 T03400154  RH  033%=      5-min Rain = 0
KSE2 202319Z 14014KT 34/15 A2993 RMK A01 T03390154  RH  033%=      5-min Rain = 0
KSE2 202320Z 15012KT 34/16 A2993 RMK A01 T03390155  RH  033%=      5-min Rain = 0
KSE2 202321Z 16010KT 34/15 A2993 RMK A01 T03390154  RH  033%=      5-min Rain = 0
KSE2 202322Z 16011KT 34/15 A2993 RMK A01 T03400154  RH  033%=      5-min Rain = 0
KSE2 202323Z 16008KT 34/16 A2993 RMK A01 T03390155  RH  033%=      5-min Rain = 0
KSE2 202324Z 16010KT 34/16 A2993 RMK A01 T03400156  RH  033%=      5-min Rain = 0
KSE2 202325Z 17008G14KT 34/16 A2993 RMK A01 T03410158  RH  033%=      5-min Rain = 0
KSE2 202326Z 16013KT 34/15 A2993 RMK A01 T03410154  RH  033%=      5-min Rain = 0
KSE2 202327Z 14012G20KT 34/15 A2993 RMK A01 T03410153  RH  033%=      5-min Rain = 0
KSE2 202328Z 15013G18KT 34/15 A2993 RMK A01 T03400152  RH  032%=      5-min Rain = 0
KSE2 202329Z 15017KT 34/15 A2993 RMK A01 T03400150  RH  032%=      5-min Rain = 0
KSE2 202330Z 15015G20KT 34/15 A2993 RMK A01 T03380148  RH  032%=      5-min Rain = 0
KSE2 202331Z 15013G19KT 34/15 A2993 RMK A01 T03370149  RH  032%=      5-min Rain = 0
KSE2 202332Z 15012KT 34/15 A2993 RMK A01 T03370149  RH  032%=      5-min Rain = 0
KSE2 202333Z 16011G16KT 34/15 A2993 RMK A01 T03370148  RH  032%=      5-min Rain = 0
KSE2 202334Z 15012KT 34/15 A2993 RMK A01 T03370147  RH  032%=      5-min Rain = 0
KSE2 202335Z 14012KT 34/15 A2993 RMK A01 T03370146  RH  032%=      5-min Rain = 0
KSE2 202336Z 14014KT 34/15 A2993 RMK A01 T03370146  RH  032%=      5-min Rain = 0
KSE2 202337Z 14014KT 34/15 A2993 RMK A01 T03370147  RH  032%=      5-min Rain = 0
KSE2 202338Z 14012KT 34/15 A2993 RMK A01 T03370148  RH  032%=      5-min Rain = 0
KSE2 202339Z 15015G22KT 34/15 A2993 RMK A01 T03380146  RH  032%=      5-min Rain = 0
KSE2 202340Z 15012KT 34/15 A2993 RMK A01 T03370145  RH  032%=      5-min Rain = 0
KSE2 202341Z 16012G18KT 34/15 A2993 RMK A01 T03370146  RH  032%=      5-min Rain = 0
KSE2 202342Z 15010KT 34/15 A2993 RMK A01 T03370146  RH  032%=      5-min Rain = 0
KSE2 202343Z 14009KT 34/15 A2993 RMK A01 T03370147  RH  032%=      5-min Rain = 0
KSE2 202344Z 15012KT 34/15 A2993 RMK A01 T03380148  RH  032%=      5-min Rain = 0
KSE2 202345Z 14012KT 34/15 A2993 RMK A01 T03380146  RH  032%=      5-min Rain = 0
KSE2 202346Z 15012G17KT 34/15 A2993 RMK A01 T03390146  RH  031%=      5-min Rain = 0
KSE2 202347Z 16013G18KT 34/15 A2993 RMK A01 T03380145  RH  031%=      5-min Rain = 0
KSE2 202348Z 15013G18KT 34/15 A2993 RMK A01 T03370146  RH  032%=      5-min Rain = 0
KSE2 202349Z 16015KT 34/15 A2993 RMK A01 T03370146  RH  032%=      5-min Rain = 0
KSE2 202350Z 17013G19KT 34/15 A2993 RMK A01 T03360147  RH  032%=      5-min Rain = 0
KSE2 202351Z 16012KT 34/15 A2993 RMK A01 T03360146  RH  032%=      5-min Rain = 0
KSE2 202352Z 15012KT 34/15 A2993 RMK A01 T03360146  RH  032%=      5-min Rain = 0
KSE2 202353Z 17010G15KT 34/15 A2993 RMK A01 T03370146  RH  032%=      5-min Rain = 0
KSE2 202354Z 15009KT 34/15 A2993 RMK A01 T03370146  RH  032%=      5-min Rain = 0
KSE2 202355Z 15009G14KT 34/15 A2993 RMK A01 T03380146  RH  032%=      5-min Rain = 0
KSE2 202356Z 15012KT 34/15 A2993 RMK A01 T03380146  RH  032%=      5-min Rain = 0
KSE2 202357Z 16012KT 34/15 A2993 RMK A01 T03380148  RH  032%=      5-min Rain = 0
KSE2 202358Z 16010KT 34/15 A2993 RMK A01 T03370148  RH  032%=      5-min Rain = 0
KSE2 202359Z 15009KT 34/15 A2993 RMK A01 T03370149  RH  032%=      5-min Rain = 0
KSE2 210000Z 16010KT 34/15 A2993 RMK A01 T03370150  RH  033%=      5-min Rain = 0
KSE2 210001Z 15012KT 34/15 A2993 RMK A01 T03380150  RH  033%=      5-min Rain = 0
KSE2 210002Z 15012G17KT 34/15 A2993 RMK A01 T03370148  RH  032%=      5-min Rain = 0
KSE2 210003Z 15009KT 34/15 A2993 RMK A01 T03360148  RH  032%=      5-min Rain = 0
KSE2 210004Z 14008KT 34/15 A2993 RMK A01 T03360150  RH  033%=      5-min Rain = 0
KSE2 210005Z 14013KT 34/15 A2993 RMK A01 T03360149  RH  032%=      5-min Rain = 0
KSE2 210006Z 14011KT 34/15 A2993 RMK A01 T03360148  RH  032%=      5-min Rain = 0
KSE2 210007Z 13013G18KT 34/15 A2993 RMK A01 T03360149  RH  033%=      5-min Rain = 0
KSE2 210008Z 15009KT 34/15 A2993 RMK A01 T03350149  RH  033%=      5-min Rain = 0
KSE2 210009Z 14010KT 34/15 A2993 RMK A01 T03350150  RH  033%=      5-min Rain = 0
KSE2 210010Z 15011G17KT 33/15 A2993 RMK A01 T03340149  RH  033%=      5-min Rain = 0
KSE2 210011Z 14009KT 33/15 A2993 RMK A01 T03340150  RH  033%=      5-min Rain = 0
KSE2 210012Z 13010KT 34/15 A2993 RMK A01 T03350150  RH  033%=      5-min Rain = 0
KSE2 210013Z 14009KT 33/15 A2993 RMK A01 T03340150  RH  033%=      5-min Rain = 0
KSE2 210014Z 14010KT 33/15 A2993 RMK A01 T03340151  RH  033%=      5-min Rain = 0
KSE2 210015Z 14008KT 34/15 A2993 RMK A01 T03350152  RH  033%=      5-min Rain = 0
KSE2 210016Z 15010KT 34/15 A2993 RMK A01 T03350152  RH  033%=      5-min Rain = 0
KSE2 210017Z 15013KT 33/15 A2993 RMK A01 T03340151  RH  033%=      5-min Rain = 0
KSE2 210018Z 15013KT 33/15 A2993 RMK A01 T03330149  RH  033%=      5-min Rain = 0
KSE2 210019Z 16010G17KT 33/15 A2993 RMK A01 T03330150  RH  033%=      5-min Rain = 0
KSE2 210020Z 17012KT 33/15 A2993 RMK A01 T03330150  RH  033%=      5-min Rain = 0
KSE2 210021Z 18010KT 33/15 A2993 RMK A01 T03320150  RH  033%=      5-min Rain = 0
KSE2 210022Z 16011KT 33/15 A2993 RMK A01 T03320150  RH  033%=      5-min Rain = 0
KSE2 210023Z 16011KT 33/15 A2993 RMK A01 T03320150  RH  033%=      5-min Rain = 0
KSE2 210024Z 17010KT 33/15 A2993 RMK A01 T03320150  RH  034%=      5-min Rain = 0
KSE2 210025Z 16008KT 33/15 A2993 RMK A01 T03320151  RH  034%=      5-min Rain = 0
KSE2 210026Z 16010G15KT 33/15 A2993 RMK A01 T03310151  RH  034%=      5-min Rain = 0
KSE2 210027Z 17009KT 33/15 A2993 RMK A01 T03310149  RH  033%=      5-min Rain = 0
KSE2 210028Z 17010G15KT 33/15 A2993 RMK A01 T03310150  RH  034%=      5-min Rain = 0
KSE2 210029Z 16008KT 33/15 A2993 RMK A01 T03300151  RH  034%=      5-min Rain = 0
KSE2 210030Z 15010G15KT 33/15 A2993 RMK A01 T03300151  RH  034%=      5-min Rain = 0
KSE2 210031Z 17010G17KT 33/15 A2993 RMK A01 T03310151  RH  034%=      5-min Rain = 0
KSE2 210032Z 17008KT 33/15 A2993 RMK A01 T03300151  RH  034%=      5-min Rain = 0
KSE2 210033Z 16009G15KT 33/15 A2993 RMK A01 T03310152  RH  034%=      5-min Rain = 0
KSE2 210034Z 16012KT 33/15 A2993 RMK A01 T03300153  RH  034%=      5-min Rain = 0
KSE2 210035Z 16008KT 33/15 A2993 RMK A01 T03300154  RH  035%=      5-min Rain = 0
KSE2 210036Z 16010KT 33/15 A2993 RMK A01 T03300153  RH  035%=      5-min Rain = 0
KSE2 210037Z 16009KT 33/15 A2993 RMK A01 T03300153  RH  035%=      5-min Rain = 0
KSE2 210038Z 16013KT 33/15 A2993 RMK A01 T03290153  RH  035%=      5-min Rain = 0
KSE2 210039Z 15013KT 33/15 A2993 RMK A01 T03290152  RH  034%=      5-min Rain = 0
KSE2 210040Z 14012KT 33/15 A2993 RMK A01 T03280151  RH  034%=      5-min Rain = 0
KSE2 210041Z 15011G16KT 33/15 A2993 RMK A01 T03280151  RH  034%=      5-min Rain = 0
KSE2 210042Z 15012KT 33/15 A2993 RMK A01 T03280151  RH  034%=      5-min Rain = 0
KSE2 210043Z 15009KT 33/15 A2993 RMK A01 T03280152  RH  035%=      5-min Rain = 0
KSE2 210044Z 15011KT 33/15 A2993 RMK A01 T03270152  RH  035%=      5-min Rain = 0
KSE2 210045Z 15011KT 33/15 A2993 RMK A01 T03270153  RH  035%=      5-min Rain = 0
KSE2 210046Z 15011KT 33/15 A2993 RMK A01 T03270152  RH  035%=      5-min Rain = 0
KSE2 210047Z 16011KT 33/15 A2993 RMK A01 T03270153  RH  035%=      5-min Rain = 0
KSE2 210048Z 15011KT 33/15 A2993 RMK A01 T03270153  RH  035%=      5-min Rain = 0
KSE2 210049Z 15010KT 33/15 A2993 RMK A01 T03260152  RH  035%=      5-min Rain = 0
KSE2 210050Z 15008KT 33/15 A2993 RMK A01 T03260153  RH  035%=      5-min Rain = 0
KSE2 210051Z 15009KT 33/15 A2993 RMK A01 T03260153  RH  035%=      5-min Rain = 0
KSE2 210052Z 16008KT 33/15 A2993 RMK A01 T03250153  RH  035%=      5-min Rain = 0
KSE2 210053Z 15008KT 33/15 A2993 RMK A01 T03250154  RH  036%=      5-min Rain = 0
KSE2 210054Z 16009KT 33/15 A2993 RMK A01 T03250154  RH  036%=      5-min Rain = 0
KSE2 210055Z 16009KT 32/15 A2993 RMK A01 T03240153  RH  036%=      5-min Rain = 0
KSE2 210056Z 16008KT 32/15 A2993 RMK A01 T03240153  RH  036%=      5-min Rain = 0
KSE2 210057Z 15008G13KT 32/15 A2993 RMK A01 T03240153  RH  036%=      5-min Rain = 0
KSE2 210058Z 15011KT 32/15 A2993 RMK A01 T03240152  RH  036%=      5-min Rain = 0
KSE2 210059Z 15012KT 32/15 A2993 RMK A01 T03240152  RH  036%=      5-min Rain = 0
KSE2 210100Z 14010G15KT 32/15 A2993 RMK A01 T03230152  RH  036%=      5-min Rain = 0
KSE2 210101Z 15011KT 32/15 A2993 RMK A01 T03230153  RH  036%=      5-min Rain = 0
KSE2 210102Z 14010KT 32/15 A2993 RMK A01 T03230153  RH  036%=      5-min Rain = 0
KSE2 210103Z 14009KT 32/15 A2993 RMK A01 T03230153  RH  036%=      5-min Rain = 0
KSE2 210104Z 15008KT 32/15 A2993 RMK A01 T03220153  RH  036%=      5-min Rain = 0
KSE2 210105Z 15010KT 32/15 A2993 RMK A01 T03220153  RH  036%=      5-min Rain = 0
KSE2 210106Z 15009KT 32/15 A2993 RMK A01 T03210153  RH  036%=      5-min Rain = 0
KSE2 210107Z 16009KT 32/15 A2993 RMK A01 T03210153  RH  036%=      5-min Rain = 0
KSE2 210108Z 16009KT 32/15 A2993 RMK A01 T03210153  RH  036%=      5-min Rain = 0
KSE2 210109Z 16012KT 32/15 A2993 RMK A01 T03210153  RH  036%=      5-min Rain = 0
KSE2 210110Z 16010KT 32/15 A2993 RMK A01 T03210152  RH  036%=      5-min Rain = 0
KSE2 210111Z 15011KT 32/15 A2993 RMK A01 T03210153  RH  036%=      5-min Rain = 0
KSE2 210112Z 16008KT 32/15 A2993 RMK A01 T03210153  RH  036%=      5-min Rain = 0
KSE2 210113Z 16007KT 32/15 A2993 RMK A01 T03200153  RH  036%=      5-min Rain = 0
KSE2 210114Z 16008KT 32/15 A2993 RMK A01 T03200153  RH  037%=      5-min Rain = 0
KSE2 210115Z 15008KT 32/15 A2993 RMK A01 T03190153  RH  037%=      5-min Rain = 0
KSE2 210116Z 15008KT 32/15 A2993 RMK A01 T03190153  RH  037%=      5-min Rain = 0
KSE2 210117Z 15006KT 32/15 A2993 RMK A01 T03190153  RH  037%=      5-min Rain = 0
KSE2 210118Z 16006KT 32/15 A2993 RMK A01 T03180154  RH  037%=      5-min Rain = 0
KSE2 210119Z 15007KT 32/15 A2993 RMK A01 T03170153  RH  037%=      5-min Rain = 0
KSE2 210120Z 15007KT 32/15 A2993 RMK A01 T03170154  RH  037%=      5-min Rain = 0
KSE2 210121Z 14006KT 32/15 A2993 RMK A01 T03160154  RH  037%=      5-min Rain = 0
KSE2 210122Z 15007KT 32/15 A2994 RMK A01 T03160154  RH  038%=      5-min Rain = 0
KSE2 210123Z 15010KT 32/16 A2993 RMK A01 T03160155  RH  038%=      5-min Rain = 0
KSE2 210124Z 14011KT 32/16 A2993 RMK A01 T03150155  RH  038%=      5-min Rain = 0
KSE2 210125Z 15010KT 32/16 A2994 RMK A01 T03160155  RH  038%=      5-min Rain = 0
KSE2 210126Z 16010KT 32/16 A2994 RMK A01 T03160156  RH  038%=      5-min Rain = 0
KSE2 210127Z 15010KT 32/16 A2994 RMK A01 T03160156  RH  038%=      5-min Rain = 0
KSE2 210128Z 15008KT 32/16 A2994 RMK A01 T03160157  RH  038%=      5-min Rain = 0
KSE2 210129Z 15010KT 32/16 A2994 RMK A01 T03160156  RH  038%=      5-min Rain = 0
KSE2 210130Z 15009KT 32/16 A2994 RMK A01 T03160157  RH  038%=      5-min Rain = 0
KSE2 210131Z 15008KT 32/16 A2994 RMK A01 T03150157  RH  039%=      5-min Rain = 0
KSE2 210132Z 15008KT 32/16 A2994 RMK A01 T03150157  RH  039%=      5-min Rain = 0
KSE2 210133Z 14009KT 31/16 A2994 RMK A01 T03140158  RH  039%=      5-min Rain = 0
KSE2 210134Z 15011KT 31/16 A2994 RMK A01 T03130157  RH  039%=      5-min Rain = 0
KSE2 210135Z 14009KT 31/16 A2994 RMK A01 T03140158  RH  039%=      5-min Rain = 0
KSE2 210136Z 15008KT 31/16 A2994 RMK A01 T03130158  RH  039%=      5-min Rain = 0
KSE2 210137Z 14008KT 31/16 A2994 RMK A01 T03130158  RH  039%=      5-min Rain = 0
KSE2 210138Z 14009KT 31/16 A2994 RMK A01 T03130159  RH  039%=      5-min Rain = 0
KSE2 210139Z 14009KT 31/16 A2994 RMK A01 T03120159  RH  040%=      5-min Rain = 0
KSE2 210140Z 14011KT 31/16 A2994 RMK A01 T03120159  RH  040%=      5-min Rain = 0
KSE2 210141Z 15009KT 31/16 A2994 RMK A01 T03120159  RH  040%=      5-min Rain = 0
KSE2 210142Z 14009KT 31/16 A2994 RMK A01 T03120159  RH  040%=      5-min Rain = 0
KSE2 210143Z 14007KT 31/16 A2994 RMK A01 T03120160  RH  040%=      5-min Rain = 0
KSE2 210144Z 14009KT 31/16 A2994 RMK A01 T03120160  RH  040%=      5-min Rain = 0
KSE2 210145Z 14008KT 31/16 A2994 RMK A01 T03110160  RH  040%=      5-min Rain = 0
KSE2 210146Z 14008KT 31/16 A2994 RMK A01 T03100160  RH  040%=      5-min Rain = 0
KSE2 210147Z 14008KT 31/16 A2994 RMK A01 T03100160  RH  041%=      5-min Rain = 0
KSE2 210148Z 14009KT 31/16 A2994 RMK A01 T03090161  RH  041%=      5-min Rain = 0
KSE2 210149Z 14009KT 31/16 A2994 RMK A01 T03090161  RH  041%=      5-min Rain = 0
KSE2 210150Z 14008KT 31/16 A2994 RMK A01 T03090161  RH  041%=      5-min Rain = 0
KSE2 210151Z 14007KT 31/16 A2994 RMK A01 T03090161  RH  041%=      5-min Rain = 0
KSE2 210152Z 14007KT 31/16 A2994 RMK A01 T03080161  RH  041%=      5-min Rain = 0
KSE2 210153Z 14008KT 31/16 A2994 RMK A01 T03070161  RH  041%=      5-min Rain = 0
KSE2 210154Z 15009KT 31/16 A2994 RMK A01 T03070161  RH  041%=      5-min Rain = 0
KSE2 210155Z 14007KT 31/16 A2994 RMK A01 T03070161  RH  041%=      5-min Rain = 0
KSE2 210156Z 15008KT 31/16 A2994 RMK A01 T03070162  RH  042%=      5-min Rain = 0
KSE2 210157Z 14008KT 31/16 A2994 RMK A01 T03070162  RH  042%=      5-min Rain = 0
KSE2 210158Z 14007KT 31/16 A2994 RMK A01 T03070162  RH  042%=      5-min Rain = 0
KSE2 210159Z 15009KT 31/16 A2994 RMK A01 T03060161  RH  042%=      5-min Rain = 0
KSE2 210200Z 14007KT 31/16 A2994 RMK A01 T03060162  RH  042%=      5-min Rain = 0
KSE2 210201Z 15008KT 31/16 A2994 RMK A01 T03060162  RH  042%=      5-min Rain = 0
KSE2 210202Z 14007KT 31/16 A2994 RMK A01 T03060161  RH  042%=      5-min Rain = 0
KSE2 210203Z 15008KT 31/16 A2994 RMK A01 T03060162  RH  042%=      5-min Rain = 0
KSE2 210204Z 15008KT 31/16 A2994 RMK A01 T03060162  RH  042%=      5-min Rain = 0
KSE2 210205Z 15008KT 31/16 A2994 RMK A01 T03060162  RH  042%=      5-min Rain = 0
KSE2 210206Z 15007KT 31/16 A2994 RMK A01 T03050162  RH  042%=      5-min Rain = 0
KSE2 210207Z 14006KT 31/16 A2994 RMK A01 T03050162  RH  042%=      5-min Rain = 0
KSE2 210208Z 14006KT 30/16 A2994 RMK A01 T03040162  RH  042%=      5-min Rain = 0
KSE2 210209Z 15006KT 30/16 A2994 RMK A01 T03030161  RH  042%=      5-min Rain = 0
KSE2 210210Z 14007KT 30/16 A2994 RMK A01 T03030162  RH  042%=      5-min Rain = 0
KSE2 210211Z 14006KT 30/16 A2994 RMK A01 T03030162  RH  043%=      5-min Rain = 0
KSE2 210212Z 14005KT 30/16 A2994 RMK A01 T03020162  RH  043%=      5-min Rain = 0
KSE2 210213Z 15006KT 30/16 A2994 RMK A01 T03020162  RH  043%=      5-min Rain = 0
KSE2 210214Z 15006KT 30/16 A2994 RMK A01 T03020162  RH  043%=      5-min Rain = 0
KSE2 210215Z 15006KT 30/16 A2994 RMK A01 T03010162  RH  043%=      5-min Rain = 0
KSE2 210216Z 15006KT 30/16 A2994 RMK A01 T03010162  RH  043%=      5-min Rain = 0
KSE2 210217Z 15006KT 30/16 A2994 RMK A01 T03010162  RH  043%=      5-min Rain = 0
KSE2 210218Z 15006KT 30/16 A2994 RMK A01 T03000162  RH  043%=      5-min Rain = 0
KSE2 210219Z 15005KT 30/16 A2994 RMK A01 T02990162  RH  044%=      5-min Rain = 0
KSE2 210220Z 14006KT 30/16 A2994 RMK A01 T02980162  RH  044%=      5-min Rain = 0
KSE2 210221Z 14006KT 30/16 A2994 RMK A01 T02980162  RH  044%=      5-min Rain = 0
KSE2 210222Z 14005KT 30/16 A2994 RMK A01 T02980162  RH  044%=      5-min Rain = 0
KSE2 210223Z 15006KT 30/16 A2994 RMK A01 T02970162  RH  044%=      5-min Rain = 0
KSE2 210224Z 15005KT 30/16 A2994 RMK A01 T02960162  RH  044%=      5-min Rain = 0
KSE2 210225Z 14006KT 30/16 A2994 RMK A01 T02960162  RH  044%=      5-min Rain = 0
KSE2 210226Z 14006KT 30/16 A2994 RMK A01 T02950162  RH  044%=      5-min Rain = 0
KSE2 210227Z 14007KT 30/16 A2995 RMK A01 T02950162  RH  044%=      5-min Rain = 0
KSE2 210228Z 15006KT 30/16 A2995 RMK A01 T02950162  RH  044%=      5-min Rain = 0
KSE2 210229Z 15006KT 30/16 A2995 RMK A01 T02950161  RH  044%=      5-min Rain = 0
KSE2 210230Z 14007KT 30/16 A2995 RMK A01 T02950161  RH  044%=      5-min Rain = 0
KSE2 210231Z 15007KT 30/16 A2995 RMK A01 T02950161  RH  044%=      5-min Rain = 0
KSE2 210232Z 15006KT 30/16 A2995 RMK A01 T02950161  RH  044%=      5-min Rain = 0
KSE2 210233Z 14006KT 30/16 A2995 RMK A01 T02950161  RH  044%=      5-min Rain = 0
KSE2 210234Z 14006KT 30/16 A2995 RMK A01 T02950161  RH  044%=      5-min Rain = 0
KSE2 210235Z 14007KT 29/16 A2995 RMK A01 T02940161  RH  045%=      5-min Rain = 0
KSE2 210236Z 14007KT 29/16 A2995 RMK A01 T02930161  RH  045%=      5-min Rain = 0
KSE2 210237Z 14006KT 29/16 A2995 RMK A01 T02930161  RH  045%=      5-min Rain = 0
KSE2 210238Z 14007KT 29/16 A2995 RMK A01 T02930161  RH  045%=      5-min Rain = 0
KSE2 210239Z 14007KT 29/16 A2995 RMK A01 T02920161  RH  045%=      5-min Rain = 0
KSE2 210240Z 13006KT 29/16 A2995 RMK A01 T02930161  RH  045%=      5-min Rain = 0
KSE2 210241Z 13008KT 29/16 A2995 RMK A01 T02920161  RH  045%=      5-min Rain = 0
KSE2 210242Z 13007KT 29/16 A2995 RMK A01 T02930162  RH  045%=      5-min Rain = 0
KSE2 210243Z 13007KT 29/16 A2995 RMK A01 T02930162  RH  045%=      5-min Rain = 0
KSE2 210244Z 12007KT 29/16 A2995 RMK A01 T02920162  RH  045%=      5-min Rain = 0
KSE2 210245Z 13006KT 29/16 A2995 RMK A01 T02920162  RH  046%=      5-min Rain = 0
KSE2 210246Z 13005KT 29/16 A2995 RMK A01 T02910163  RH  046%=      5-min Rain = 0
KSE2 210247Z 13006KT 29/16 A2996 RMK A01 T02910163  RH  046%=      5-min Rain = 0
KSE2 210248Z 13007KT 29/16 A2996 RMK A01 T02910163  RH  046%=      5-min Rain = 0
KSE2 210249Z 13006KT 29/16 A2996 RMK A01 T02900163  RH  046%=      5-min Rain = 0
KSE2 210250Z 12007KT 29/16 A2996 RMK A01 T02900163  RH  046%=      5-min Rain = 0
KSE2 210251Z 13005KT 29/16 A2996 RMK A01 T02890163  RH  046%=      5-min Rain = 0
KSE2 210252Z 12006KT 29/16 A2996 RMK A01 T02880163  RH  047%=      5-min Rain = 0
KSE2 210253Z 13006KT 29/16 A2996 RMK A01 T02880163  RH  047%=      5-min Rain = 0
KSE2 210254Z 13006KT 29/16 A2996 RMK A01 T02880164  RH  047%=      5-min Rain = 0
KSE2 210255Z 13006KT 29/16 A2996 RMK A01 T02880164  RH  047%=      5-min Rain = 0
KSE2 210256Z 13006KT 29/17 A2996 RMK A01 T02880165  RH  047%=      5-min Rain = 0
KSE2 210257Z 13005KT 29/16 A2996 RMK A01 T02870164  RH  048%=      5-min Rain = 0
KSE2 210258Z 13006KT 29/17 A2996 RMK A01 T02860165  RH  048%=      5-min Rain = 0
KSE2 210259Z 13007KT 29/17 A2996 RMK A01 T02850165  RH  048%=      5-min Rain = 0
KSE2 210300Z 13007KT 29/17 A2996 RMK A01 T02850165  RH  048%=      5-min Rain = 0
KSE2 210301Z 12007KT 29/17 A2996 RMK A01 T02850166  RH  048%=      5-min Rain = 0
KSE2 210302Z 12006KT 29/17 A2996 RMK A01 T02850166  RH  049%=      5-min Rain = 0
KSE2 210303Z 13006KT 29/17 A2996 RMK A01 T02850166  RH  049%=      5-min Rain = 0
KSE2 210304Z 13006KT 28/17 A2996 RMK A01 T02840167  RH  049%=      5-min Rain = 0
KSE2 210305Z 13006KT 28/17 A2996 RMK A01 T02840167  RH  049%=      5-min Rain = 0
KSE2 210306Z 12006KT 28/17 A2996 RMK A01 T02830167  RH  049%=      5-min Rain = 0
KSE2 210307Z 13006KT 28/17 A2996 RMK A01 T02830167  RH  049%=      5-min Rain = 0
KSE2 210308Z 12006KT 28/17 A2996 RMK A01 T02830168  RH  050%=      5-min Rain = 0
KSE2 210309Z 13006KT 28/17 A2996 RMK A01 T02820168  RH  050%=      5-min Rain = 0
KSE2 210310Z 12006KT 28/17 A2996 RMK A01 T02820168  RH  050%=      5-min Rain = 0
KSE2 210311Z 12007KT 28/17 A2996 RMK A01 T02820168  RH  050%=      5-min Rain = 0
KSE2 210312Z 12006KT 28/17 A2996 RMK A01 T02810169  RH  050%=      5-min Rain = 0
KSE2 210313Z 12007KT 28/17 A2996 RMK A01 T02810169  RH  051%=      5-min Rain = 0
KSE2 210314Z 12006KT 28/17 A2997 RMK A01 T02820170  RH  051%=      5-min Rain = 0
KSE2 210315Z 13007KT 28/17 A2997 RMK A01 T02820170  RH  051%=      5-min Rain = 0
KSE2 210316Z 12007KT 28/17 A2997 RMK A01 T02820170  RH  051%=      5-min Rain = 0
KSE2 210317Z 13006KT 28/17 A2997 RMK A01 T02820171  RH  051%=      5-min Rain = 0
KSE2 210318Z 12006KT 28/17 A2997 RMK A01 T02810170  RH  051%=      5-min Rain = 0
KSE2 210319Z 12006KT 28/17 A2997 RMK A01 T02800171  RH  051%=      5-min Rain = 0
KSE2 210320Z 12006KT 28/17 A2997 RMK A01 T02800171  RH  052%=      5-min Rain = 0
KSE2 210321Z 12006KT 28/17 A2997 RMK A01 T02800172  RH  052%=      5-min Rain = 0
KSE2 210322Z 12007KT 28/17 A2997 RMK A01 T02790172  RH  052%=      5-min Rain = 0
KSE2 210323Z 12007KT 28/17 A2997 RMK A01 T02790173  RH  052%=      5-min Rain = 0
KSE2 210324Z 12007KT 28/17 A2997 RMK A01 T02790173  RH  052%=      5-min Rain = 0
KSE2 210325Z 12007KT 28/17 A2997 RMK A01 T02790173  RH  052%=      5-min Rain = 0
KSE2 210326Z 13007KT 28/17 A2997 RMK A01 T02790173  RH  052%=      5-min Rain = 0
KSE2 210327Z 13008KT 28/17 A2997 RMK A01 T02790173  RH  053%=      5-min Rain = 0
KSE2 210328Z 12007KT 28/17 A2997 RMK A01 T02790173  RH  053%=      5-min Rain = 0
KSE2 210329Z 12009KT 28/17 A2997 RMK A01 T02790173  RH  053%=      5-min Rain = 0
KSE2 210330Z 12008KT 28/17 A2997 RMK A01 T02790174  RH  053%=      5-min Rain = 0
KSE2 210331Z 12008KT 28/17 A2997 RMK A01 T02800174  RH  052%=      5-min Rain = 0
KSE2 210332Z 12008KT 28/17 A2997 RMK A01 T02800174  RH  053%=      5-min Rain = 0
KSE2 210333Z 13009KT 28/17 A2998 RMK A01 T02800174  RH  053%=      5-min Rain = 0
KSE2 210334Z 13008KT 28/17 A2998 RMK A01 T02800174  RH  053%=      5-min Rain = 0
KSE2 210335Z 12009KT 28/18 A2998 RMK A01 T02810175  RH  052%=      5-min Rain = 0
KSE2 210336Z 12010G15KT 28/18 A2998 RMK A01 T02810175  RH  052%=      5-min Rain = 0
KSE2 210337Z 13009KT 28/18 A2998 RMK A01 T02820175  RH  052%=      5-min Rain = 0
KSE2 210338Z 13010KT 28/18 A2998 RMK A01 T02820175  RH  052%=      5-min Rain = 0
KSE2 210339Z 12009KT 28/18 A2998 RMK A01 T02820176  RH  052%=      5-min Rain = 0
KSE2 210340Z 13008KT 28/18 A2998 RMK A01 T02830176  RH  052%=      5-min Rain = 0
KSE2 210341Z 13010KT 28/18 A2998 RMK A01 T02820176  RH  052%=      5-min Rain = 0
KSE2 210342Z 13009KT 28/18 A2998 RMK A01 T02820176  RH  053%=      5-min Rain = 0
KSE2 210343Z 13008KT 28/18 A2998 RMK A01 T02820176  RH  053%=      5-min Rain = 0
KSE2 210344Z 13010KT 28/18 A2998 RMK A01 T02820176  RH  053%=      5-min Rain = 0
KSE2 210345Z 13009KT 28/18 A2998 RMK A01 T02810176  RH  053%=      5-min Rain = 0
KSE2 210346Z 13011KT 28/18 A2998 RMK A01 T02820177  RH  053%=      5-min Rain = 0
KSE2 210347Z 13010KT 28/18 A2998 RMK A01 T02820177  RH  053%=      5-min Rain = 0
KSE2 210348Z 13008KT 28/18 A2998 RMK A01 T02820177  RH  053%=      5-min Rain = 0
KSE2 210349Z 13009KT 28/18 A2998 RMK A01 T02820177  RH  053%=      5-min Rain = 0
KSE2 210350Z 13011KT 28/18 A2998 RMK A01 T02820177  RH  053%=      5-min Rain = 0
KSE2 210351Z 13009KT 28/18 A2998 RMK A01 T02820177  RH  053%=      5-min Rain = 0
KSE2 210352Z 13010KT 28/18 A2998 RMK A01 T02820178  RH  053%=      5-min Rain = 0
KSE2 210353Z 14011KT 28/18 A2998 RMK A01 T02820178  RH  053%=      5-min Rain = 0
KSE2 210354Z 13010KT 28/18 A2998 RMK A01 T02820178  RH  053%=      5-min Rain = 0
KSE2 210355Z 13008KT 28/18 A2998 RMK A01 T02820178  RH  053%=      5-min Rain = 0
KSE2 210356Z 13010KT 28/18 A2998 RMK A01 T02810178  RH  053%=      5-min Rain = 0
KSE2 210357Z 13010KT 28/18 A2998 RMK A01 T02810178  RH  054%=      5-min Rain = 0
KSE2 210358Z 13010KT 28/18 A2998 RMK A01 T02810178  RH  054%=      5-min Rain = 0
KSE2 210359Z 13010KT 28/18 A2998 RMK A01 T02810178  RH  054%=      5-min Rain = 0
KSE2 210400Z 13011KT 28/18 A2998 RMK A01 T02810178  RH  054%=      5-min Rain = 0
KSE2 210401Z 13010KT 28/18 A2998 RMK A01 T02810179  RH  054%=      5-min Rain = 0
KSE2 210402Z 14010KT 28/18 A2998 RMK A01 T02800179  RH  054%=      5-min Rain = 0
KSE2 210403Z 13010KT 28/18 A2998 RMK A01 T02800179  RH  054%=      5-min Rain = 0
KSE2 210404Z 14010KT 28/18 A2998 RMK A01 T02800180  RH  055%=      5-min Rain = 0
KSE2 210405Z 13009KT 28/18 A2998 RMK A01 T02800180  RH  055%=      5-min Rain = 0
KSE2 210406Z 14010KT 28/18 A2998 RMK A01 T02790180  RH  055%=      5-min Rain = 0
KSE2 210407Z 13012KT 28/18 A2998 RMK A01 T02780180  RH  055%=      5-min Rain = 0
KSE2 210408Z 13011G17KT 28/18 A2998 RMK A01 T02780180  RH  055%=      5-min Rain = 0
KSE2 210409Z 13013KT 28/18 A2998 RMK A01 T02780181  RH  055%=      5-min Rain = 0
KSE2 210410Z 13010KT 28/18 A2998 RMK A01 T02790181  RH  055%=      5-min Rain = 0
KSE2 210411Z 14010KT 28/18 A2998 RMK A01 T02790181  RH  055%=      5-min Rain = 0
KSE2 210412Z 14010G15KT 28/18 A2998 RMK A01 T02790181  RH  055%=      5-min Rain = 0
KSE2 210413Z 14009KT 28/18 A2998 RMK A01 T02780181  RH  056%=      5-min Rain = 0
KSE2 210414Z 13013KT 28/18 A2998 RMK A01 T02780182  RH  056%=      5-min Rain = 0
KSE2 210415Z 14011KT 28/18 A2998 RMK A01 T02780182  RH  056%=      5-min Rain = 0
KSE2 210416Z 14010KT 28/18 A2998 RMK A01 T02770182  RH  056%=      5-min Rain = 0
KSE2 210417Z 13010KT 28/18 A2998 RMK A01 T02770182  RH  056%=      5-min Rain = 0
KSE2 210418Z 13012G17KT 28/18 A2998 RMK A01 T02770182  RH  056%=      5-min Rain = 0
KSE2 210419Z 14009KT 28/18 A2998 RMK A01 T02770183  RH  056%=      5-min Rain = 0
KSE2 210420Z 13012KT 28/18 A2998 RMK A01 T02770183  RH  057%=      5-min Rain = 0
KSE2 210421Z 14010KT 28/18 A2998 RMK A01 T02770183  RH  057%=      5-min Rain = 0
KSE2 210422Z 14012KT 28/18 A2998 RMK A01 T02770184  RH  057%=      5-min Rain = 0
KSE2 210423Z 14010KT 28/18 A2999 RMK A01 T02770183  RH  057%=      5-min Rain = 0
KSE2 210424Z 14011KT 28/18 A2998 RMK A01 T02770183  RH  057%=      5-min Rain = 0
KSE2 210425Z 14011KT 28/18 A2999 RMK A01 T02770184  RH  057%=      5-min Rain = 0
KSE2 210426Z 15010KT 28/18 A2999 RMK A01 T02760184  RH  057%=      5-min Rain = 0
KSE2 210427Z 14010KT 28/18 A2999 RMK A01 T02760184  RH  057%=      5-min Rain = 0
KSE2 210428Z 15010G15KT 28/18 A2999 RMK A01 T02760184  RH  057%=      5-min Rain = 0
KSE2 210429Z 14010KT 28/18 A2999 RMK A01 T02750184  RH  058%=      5-min Rain = 0
KSE2 210430Z 15011KT 28/19 A2999 RMK A01 T02750185  RH  058%=      5-min Rain = 0
KSE2 210431Z 14011KT 28/18 A2999 RMK A01 T02750184  RH  058%=      5-min Rain = 0
KSE2 210432Z 15010KT 28/18 A2999 RMK A01 T02750184  RH  058%=      5-min Rain = 0
KSE2 210433Z 14009KT 28/19 A2999 RMK A01 T02750185  RH  058%=      5-min Rain = 0
KSE2 210434Z 14008KT 28/19 A2999 RMK A01 T02750185  RH  058%=      5-min Rain = 0
KSE2 210435Z 14009KT 27/19 A2999 RMK A01 T02740185  RH  058%=      5-min Rain = 0
KSE2 210436Z 15009KT 27/19 A2999 RMK A01 T02740185  RH  058%=      5-min Rain = 0
KSE2 210437Z 14009KT 27/18 A2999 RMK A01 T02730184  RH  058%=      5-min Rain = 0
KSE2 210438Z 14010KT 27/19 A2999 RMK A01 T02730185  RH  059%=      5-min Rain = 0
KSE2 210439Z 14008KT 27/19 A2999 RMK A01 T02730185  RH  059%=      5-min Rain = 0
KSE2 210440Z 15008KT 27/19 A2999 RMK A01 T02720185  RH  059%=      5-min Rain = 0
KSE2 210441Z 14007KT 27/19 A2999 RMK A01 T02720185  RH  059%=      5-min Rain = 0
KSE2 210442Z 15008KT 27/19 A2999 RMK A01 T02710185  RH  059%=      5-min Rain = 0
KSE2 210443Z 14008KT 27/19 A2999 RMK A01 T02710185  RH  060%=      5-min Rain = 0
KSE2 210444Z 14008G13KT 27/19 A2999 RMK A01 T02700185  RH  060%=      5-min Rain = 0
KSE2 210445Z 15013KT 27/19 A2999 RMK A01 T02700186  RH  060%=      5-min Rain = 0
KSE2 210446Z 14011KT 27/19 A2999 RMK A01 T02710187  RH  060%=      5-min Rain = 0
KSE2 210447Z 14010KT 27/19 A2999 RMK A01 T02720187  RH  060%=      5-min Rain = 0
KSE2 210448Z 14010G15KT 27/19 A2999 RMK A01 T02720188  RH  060%=      5-min Rain = 0
KSE2 210449Z 14010KT 27/19 A2999 RMK A01 T02710188  RH  060%=      5-min Rain = 0
KSE2 210450Z 14011KT 27/19 A2999 RMK A01 T02710188  RH  061%=      5-min Rain = 0
KSE2 210451Z 14012KT 27/19 A2999 RMK A01 T02710189  RH  061%=      5-min Rain = 0
KSE2 210452Z 14010KT 27/19 A2999 RMK A01 T02710190  RH  061%=      5-min Rain = 0
KSE2 210453Z 14011KT 27/19 A2999 RMK A01 T02710190  RH  061%=      5-min Rain = 0
KSE2 210454Z 14009KT 27/19 A2999 RMK A01 T02710190  RH  061%=      5-min Rain = 0
KSE2 210455Z 14012KT 27/19 A2999 RMK A01 T02700191  RH  062%=      5-min Rain = 0
KSE2 210456Z 14009KT 27/19 A2999 RMK A01 T02700191  RH  062%=      5-min Rain = 0
KSE2 210457Z 15011KT 27/19 A2999 RMK A01 T02700191  RH  062%=      5-min Rain = 0
KSE2 210458Z 15010KT 27/19 A2999 RMK A01 T02700192  RH  062%=      5-min Rain = 0
KSE2 210459Z 15009G16KT 27/19 A2999 RMK A01 T02700192  RH  063%=      5-min Rain = 0

Page generated in 0.0722 seconds.